<?xml version="1.0" encoding="UTF-8" standalone="no" ?>
<gpx xmlns="http://www.topografix.com/GPX/1/1" xmlns:xsi="http://www.w3.org/2001/XMLSchema-instance" xsi:schemaLocation="http://www.topografix.com/GPX/1/1 http://www.topografix.com/GPX/1/1/gpx.xsd" version="1.1" creator="VisuGPX - https://www.visugpx.com">
  <metadata>
    <name>La Cure-La Dôle</name>
    <desc><![CDATA[Boucle de la Cure à la Dôle avec retour par col de Porte.]]></desc>
  </metadata>
  <trk>
    <name><![CDATA[2024-02-04 10:44]]></name>
    <desc><![CDATA[<p>Heure de départ: 10:44 4 févr. 2024<br/>Heure d'arrivée: 15:48 4 févr. 2024<br/>Distance: 13,1 km (05:04)<br/>Temps déplacement: 03:33<br/>Vitesse moyenne: 2,58 km/h<br/>Vitesse moyenne mouv.: 3,68 km/h<br/>Vitesse Max.: 7,13 km/h<br/>Altitude minimale: 1101 m<br/>Altitude maximale: 1673 m<br/>Vitesse de montée: 1225,8 m/h<br/>Vitesse de descente: -903,5 m/h<br/>Gain d'altitude: 2624 m<br/>Perte d'altitude: -2631 m<br/>Temps de montée: 02:08<br/>Temps de descente: 02:54<br/></p><hr align="center" width="480" style="height: 2px; width: 517px"/>]]></desc>
    <trkseg>
      <trkpt lat="46.46444" lon="6.0735">
        <ele>1156</ele>
        <time>2024-02-04T09:44:05Z</time>
      </trkpt>
      <trkpt lat="46.46435" lon="6.0735">
        <ele>1156.5</ele>
        <time>2024-02-04T09:44:16Z</time>
      </trkpt>
      <trkpt lat="46.46426" lon="6.07355">
        <ele>1157.2</ele>
        <time>2024-02-04T09:44:25Z</time>
      </trkpt>
      <trkpt lat="46.46417" lon="6.07359">
        <ele>1157.9</ele>
        <time>2024-02-04T09:44:34Z</time>
      </trkpt>
      <trkpt lat="46.46408" lon="6.07364">
        <ele>1158.5</ele>
        <time>2024-02-04T09:44:44Z</time>
      </trkpt>
      <trkpt lat="46.46402" lon="6.07374">
        <ele>1159</ele>
        <time>2024-02-04T09:44:53Z</time>
      </trkpt>
      <trkpt lat="46.46396" lon="6.07385">
        <ele>1159.2</ele>
        <time>2024-02-04T09:45:02Z</time>
      </trkpt>
      <trkpt lat="46.46391" lon="6.07396">
        <ele>1159.5</ele>
        <time>2024-02-04T09:48:18Z</time>
      </trkpt>
      <trkpt lat="46.46384" lon="6.07405">
        <ele>1160.2</ele>
        <time>2024-02-04T09:48:27Z</time>
      </trkpt>
      <trkpt lat="46.46375" lon="6.07412">
        <ele>1160.7</ele>
        <time>2024-02-04T09:48:35Z</time>
      </trkpt>
      <trkpt lat="46.46366" lon="6.07414">
        <ele>1160.9</ele>
        <time>2024-02-04T09:48:42Z</time>
      </trkpt>
      <trkpt lat="46.46356" lon="6.07416">
        <ele>1161.2</ele>
        <time>2024-02-04T09:49:16Z</time>
      </trkpt>
      <trkpt lat="46.46347" lon="6.07416">
        <ele>1161.5</ele>
        <time>2024-02-04T09:49:25Z</time>
      </trkpt>
      <trkpt lat="46.46337" lon="6.07415">
        <ele>1161.8</ele>
        <time>2024-02-04T09:49:34Z</time>
      </trkpt>
      <trkpt lat="46.46329" lon="6.07421">
        <ele>1162.8</ele>
        <time>2024-02-04T09:49:42Z</time>
      </trkpt>
      <trkpt lat="46.46321" lon="6.07431">
        <ele>1164</ele>
        <time>2024-02-04T09:49:50Z</time>
      </trkpt>
      <trkpt lat="46.46312" lon="6.07437">
        <ele>1164.6</ele>
        <time>2024-02-04T09:49:57Z</time>
      </trkpt>
      <trkpt lat="46.46304" lon="6.07445">
        <ele>1165</ele>
        <time>2024-02-04T09:50:05Z</time>
      </trkpt>
      <trkpt lat="46.46296" lon="6.07453">
        <ele>1165.5</ele>
        <time>2024-02-04T09:50:13Z</time>
      </trkpt>
      <trkpt lat="46.4629" lon="6.07464">
        <ele>1166.1</ele>
        <time>2024-02-04T09:50:21Z</time>
      </trkpt>
      <trkpt lat="46.46284" lon="6.07475">
        <ele>1166.6</ele>
        <time>2024-02-04T09:50:29Z</time>
      </trkpt>
      <trkpt lat="46.46277" lon="6.07486">
        <ele>1167</ele>
        <time>2024-02-04T09:50:37Z</time>
      </trkpt>
      <trkpt lat="46.46271" lon="6.07497">
        <ele>1167.3</ele>
        <time>2024-02-04T09:50:45Z</time>
      </trkpt>
      <trkpt lat="46.46266" lon="6.07509">
        <ele>1167.6</ele>
        <time>2024-02-04T09:50:53Z</time>
      </trkpt>
      <trkpt lat="46.4626" lon="6.0752">
        <ele>1167.9</ele>
        <time>2024-02-04T09:51:02Z</time>
      </trkpt>
      <trkpt lat="46.46254" lon="6.07531">
        <ele>1168.2</ele>
        <time>2024-02-04T09:51:11Z</time>
      </trkpt>
      <trkpt lat="46.46248" lon="6.07542">
        <ele>1168.1</ele>
        <time>2024-02-04T09:51:19Z</time>
      </trkpt>
      <trkpt lat="46.46241" lon="6.07553">
        <ele>1168.3</ele>
        <time>2024-02-04T09:51:27Z</time>
      </trkpt>
      <trkpt lat="46.46233" lon="6.07558">
        <ele>1168.7</ele>
        <time>2024-02-04T09:51:38Z</time>
      </trkpt>
      <trkpt lat="46.46224" lon="6.07565">
        <ele>1169</ele>
        <time>2024-02-04T09:51:45Z</time>
      </trkpt>
      <trkpt lat="46.46215" lon="6.07568">
        <ele>1169.4</ele>
        <time>2024-02-04T09:51:51Z</time>
      </trkpt>
      <trkpt lat="46.46206" lon="6.07569">
        <ele>1169.9</ele>
        <time>2024-02-04T09:51:58Z</time>
      </trkpt>
      <trkpt lat="46.46197" lon="6.07569">
        <ele>1170.4</ele>
        <time>2024-02-04T09:52:05Z</time>
      </trkpt>
      <trkpt lat="46.46187" lon="6.07565">
        <ele>1170.9</ele>
        <time>2024-02-04T09:52:12Z</time>
      </trkpt>
      <trkpt lat="46.46179" lon="6.07561">
        <ele>1171.3</ele>
        <time>2024-02-04T09:52:19Z</time>
      </trkpt>
      <trkpt lat="46.4617" lon="6.07556">
        <ele>1171.8</ele>
        <time>2024-02-04T09:52:26Z</time>
      </trkpt>
      <trkpt lat="46.46161" lon="6.07549">
        <ele>1171.8</ele>
        <time>2024-02-04T09:52:34Z</time>
      </trkpt>
      <trkpt lat="46.46152" lon="6.07542">
        <ele>1172.1</ele>
        <time>2024-02-04T09:52:42Z</time>
      </trkpt>
      <trkpt lat="46.46145" lon="6.07534">
        <ele>1172.4</ele>
        <time>2024-02-04T09:52:49Z</time>
      </trkpt>
      <trkpt lat="46.46137" lon="6.07525">
        <ele>1173.2</ele>
        <time>2024-02-04T09:52:56Z</time>
      </trkpt>
      <trkpt lat="46.4613" lon="6.07516">
        <ele>1174</ele>
        <time>2024-02-04T09:53:04Z</time>
      </trkpt>
      <trkpt lat="46.46121" lon="6.0751">
        <ele>1174.7</ele>
        <time>2024-02-04T09:53:12Z</time>
      </trkpt>
      <trkpt lat="46.46114" lon="6.07502">
        <ele>1174.9</ele>
        <time>2024-02-04T09:53:20Z</time>
      </trkpt>
      <trkpt lat="46.46104" lon="6.075">
        <ele>1175.7</ele>
        <time>2024-02-04T09:53:29Z</time>
      </trkpt>
      <trkpt lat="46.46094" lon="6.07501">
        <ele>1176.9</ele>
        <time>2024-02-04T09:53:39Z</time>
      </trkpt>
      <trkpt lat="46.46085" lon="6.07504">
        <ele>1178</ele>
        <time>2024-02-04T09:53:48Z</time>
      </trkpt>
      <trkpt lat="46.46076" lon="6.07507">
        <ele>1179.1</ele>
        <time>2024-02-04T09:53:58Z</time>
      </trkpt>
      <trkpt lat="46.46067" lon="6.07511">
        <ele>1180.4</ele>
        <time>2024-02-04T09:54:07Z</time>
      </trkpt>
      <trkpt lat="46.46058" lon="6.07515">
        <ele>1181.8</ele>
        <time>2024-02-04T09:54:17Z</time>
      </trkpt>
      <trkpt lat="46.46049" lon="6.0752">
        <ele>1183</ele>
        <time>2024-02-04T09:54:27Z</time>
      </trkpt>
      <trkpt lat="46.46041" lon="6.07528">
        <ele>1184</ele>
        <time>2024-02-04T09:54:35Z</time>
      </trkpt>
      <trkpt lat="46.46033" lon="6.07535">
        <ele>1184.9</ele>
        <time>2024-02-04T09:54:44Z</time>
      </trkpt>
      <trkpt lat="46.46025" lon="6.07543">
        <ele>1185.6</ele>
        <time>2024-02-04T09:54:54Z</time>
      </trkpt>
      <trkpt lat="46.46017" lon="6.07552">
        <ele>1185.9</ele>
        <time>2024-02-04T09:55:04Z</time>
      </trkpt>
      <trkpt lat="46.46008" lon="6.07557">
        <ele>1186.1</ele>
        <time>2024-02-04T09:55:12Z</time>
      </trkpt>
      <trkpt lat="46.46" lon="6.07565">
        <ele>1186.6</ele>
        <time>2024-02-04T09:55:20Z</time>
      </trkpt>
      <trkpt lat="46.45993" lon="6.07572">
        <ele>1187.1</ele>
        <time>2024-02-04T09:55:28Z</time>
      </trkpt>
      <trkpt lat="46.45986" lon="6.07581">
        <ele>1187.4</ele>
        <time>2024-02-04T09:55:35Z</time>
      </trkpt>
      <trkpt lat="46.45979" lon="6.0759">
        <ele>1187.5</ele>
        <time>2024-02-04T09:55:42Z</time>
      </trkpt>
      <trkpt lat="46.45971" lon="6.07599">
        <ele>1187.6</ele>
        <time>2024-02-04T09:55:50Z</time>
      </trkpt>
      <trkpt lat="46.45964" lon="6.07608">
        <ele>1188.2</ele>
        <time>2024-02-04T09:55:57Z</time>
      </trkpt>
      <trkpt lat="46.45956" lon="6.07618">
        <ele>1188.5</ele>
        <time>2024-02-04T09:56:04Z</time>
      </trkpt>
      <trkpt lat="46.4595" lon="6.07627">
        <ele>1188.7</ele>
        <time>2024-02-04T09:56:11Z</time>
      </trkpt>
      <trkpt lat="46.45943" lon="6.07637">
        <ele>1189</ele>
        <time>2024-02-04T09:56:18Z</time>
      </trkpt>
      <trkpt lat="46.45936" lon="6.07644">
        <ele>1189.4</ele>
        <time>2024-02-04T09:56:25Z</time>
      </trkpt>
      <trkpt lat="46.45927" lon="6.07652">
        <ele>1189.9</ele>
        <time>2024-02-04T09:56:33Z</time>
      </trkpt>
      <trkpt lat="46.45919" lon="6.0766">
        <ele>1190.6</ele>
        <time>2024-02-04T09:56:41Z</time>
      </trkpt>
      <trkpt lat="46.45912" lon="6.07669">
        <ele>1191.1</ele>
        <time>2024-02-04T09:56:49Z</time>
      </trkpt>
      <trkpt lat="46.45904" lon="6.07677">
        <ele>1191.2</ele>
        <time>2024-02-04T09:56:56Z</time>
      </trkpt>
      <trkpt lat="46.45898" lon="6.07687">
        <ele>1191.4</ele>
        <time>2024-02-04T09:57:03Z</time>
      </trkpt>
      <trkpt lat="46.45891" lon="6.07695">
        <ele>1191.8</ele>
        <time>2024-02-04T09:57:10Z</time>
      </trkpt>
      <trkpt lat="46.45883" lon="6.07704">
        <ele>1191.7</ele>
        <time>2024-02-04T09:57:18Z</time>
      </trkpt>
      <trkpt lat="46.45876" lon="6.07713">
        <ele>1192</ele>
        <time>2024-02-04T09:57:24Z</time>
      </trkpt>
      <trkpt lat="46.4587" lon="6.07723">
        <ele>1192.6</ele>
        <time>2024-02-04T09:57:31Z</time>
      </trkpt>
      <trkpt lat="46.45864" lon="6.07733">
        <ele>1192.9</ele>
        <time>2024-02-04T09:57:38Z</time>
      </trkpt>
      <trkpt lat="46.45855" lon="6.07739">
        <ele>1193.7</ele>
        <time>2024-02-04T09:57:46Z</time>
      </trkpt>
      <trkpt lat="46.45848" lon="6.07749">
        <ele>1194.4</ele>
        <time>2024-02-04T09:57:54Z</time>
      </trkpt>
      <trkpt lat="46.45841" lon="6.07759">
        <ele>1195.5</ele>
        <time>2024-02-04T09:58:03Z</time>
      </trkpt>
      <trkpt lat="46.45833" lon="6.07768">
        <ele>1196.4</ele>
        <time>2024-02-04T09:58:12Z</time>
      </trkpt>
      <trkpt lat="46.45827" lon="6.07778">
        <ele>1197.1</ele>
        <time>2024-02-04T09:58:20Z</time>
      </trkpt>
      <trkpt lat="46.45823" lon="6.07789">
        <ele>1197.9</ele>
        <time>2024-02-04T09:58:28Z</time>
      </trkpt>
      <trkpt lat="46.45818" lon="6.07801">
        <ele>1198.7</ele>
        <time>2024-02-04T09:58:36Z</time>
      </trkpt>
      <trkpt lat="46.45812" lon="6.07812">
        <ele>1200</ele>
        <time>2024-02-04T09:58:44Z</time>
      </trkpt>
      <trkpt lat="46.45807" lon="6.07823">
        <ele>1200.9</ele>
        <time>2024-02-04T09:58:52Z</time>
      </trkpt>
      <trkpt lat="46.45802" lon="6.07834">
        <ele>1201.6</ele>
        <time>2024-02-04T09:59:00Z</time>
      </trkpt>
      <trkpt lat="46.45796" lon="6.07845">
        <ele>1202.3</ele>
        <time>2024-02-04T09:59:08Z</time>
      </trkpt>
      <trkpt lat="46.4579" lon="6.07854">
        <ele>1202.7</ele>
        <time>2024-02-04T09:59:15Z</time>
      </trkpt>
      <trkpt lat="46.45783" lon="6.07862">
        <ele>1202.9</ele>
        <time>2024-02-04T09:59:21Z</time>
      </trkpt>
      <trkpt lat="46.45774" lon="6.07869">
        <ele>1203.2</ele>
        <time>2024-02-04T09:59:29Z</time>
      </trkpt>
      <trkpt lat="46.45764" lon="6.07873">
        <ele>1203.2</ele>
        <time>2024-02-04T09:59:36Z</time>
      </trkpt>
      <trkpt lat="46.45755" lon="6.07878">
        <ele>1203.1</ele>
        <time>2024-02-04T09:59:43Z</time>
      </trkpt>
      <trkpt lat="46.45746" lon="6.07879">
        <ele>1202.6</ele>
        <time>2024-02-04T09:59:51Z</time>
      </trkpt>
      <trkpt lat="46.45737" lon="6.07882">
        <ele>1202</ele>
        <time>2024-02-04T10:00:23Z</time>
      </trkpt>
      <trkpt lat="46.45729" lon="6.07887">
        <ele>1202.1</ele>
        <time>2024-02-04T10:00:32Z</time>
      </trkpt>
      <trkpt lat="46.45723" lon="6.079">
        <ele>1202.8</ele>
        <time>2024-02-04T10:00:42Z</time>
      </trkpt>
      <trkpt lat="46.45723" lon="6.07913">
        <ele>1203.8</ele>
        <time>2024-02-04T10:00:52Z</time>
      </trkpt>
      <trkpt lat="46.45723" lon="6.07928">
        <ele>1205.3</ele>
        <time>2024-02-04T10:01:01Z</time>
      </trkpt>
      <trkpt lat="46.45723" lon="6.07941">
        <ele>1206.7</ele>
        <time>2024-02-04T10:01:09Z</time>
      </trkpt>
      <trkpt lat="46.45724" lon="6.07955">
        <ele>1206.7</ele>
        <time>2024-02-04T10:01:17Z</time>
      </trkpt>
      <trkpt lat="46.45726" lon="6.07968">
        <ele>1206.9</ele>
        <time>2024-02-04T10:01:24Z</time>
      </trkpt>
      <trkpt lat="46.45729" lon="6.07981">
        <ele>1208.5</ele>
        <time>2024-02-04T10:01:32Z</time>
      </trkpt>
      <trkpt lat="46.45729" lon="6.07995">
        <ele>1209.7</ele>
        <time>2024-02-04T10:01:41Z</time>
      </trkpt>
      <trkpt lat="46.45726" lon="6.08009">
        <ele>1209.7</ele>
        <time>2024-02-04T10:01:51Z</time>
      </trkpt>
      <trkpt lat="46.45724" lon="6.08022">
        <ele>1209.9</ele>
        <time>2024-02-04T10:01:59Z</time>
      </trkpt>
      <trkpt lat="46.45717" lon="6.08032">
        <ele>1209</ele>
        <time>2024-02-04T10:02:07Z</time>
      </trkpt>
      <trkpt lat="46.45718" lon="6.08045">
        <ele>1210.7</ele>
        <time>2024-02-04T10:02:14Z</time>
      </trkpt>
      <trkpt lat="46.45714" lon="6.08058">
        <ele>1211.3</ele>
        <time>2024-02-04T10:02:22Z</time>
      </trkpt>
      <trkpt lat="46.45708" lon="6.0807">
        <ele>1211.1</ele>
        <time>2024-02-04T10:02:30Z</time>
      </trkpt>
      <trkpt lat="46.45705" lon="6.08084">
        <ele>1211.8</ele>
        <time>2024-02-04T10:02:38Z</time>
      </trkpt>
      <trkpt lat="46.45697" lon="6.08093">
        <ele>1210.1</ele>
        <time>2024-02-04T10:02:47Z</time>
      </trkpt>
      <trkpt lat="46.45687" lon="6.08093">
        <ele>1209.2</ele>
        <time>2024-02-04T10:02:53Z</time>
      </trkpt>
      <trkpt lat="46.45677" lon="6.08091">
        <ele>1208.8</ele>
        <time>2024-02-04T10:02:59Z</time>
      </trkpt>
      <trkpt lat="46.45669" lon="6.08086">
        <ele>1208.3</ele>
        <time>2024-02-04T10:03:05Z</time>
      </trkpt>
      <trkpt lat="46.45661" lon="6.0808">
        <ele>1208.2</ele>
        <time>2024-02-04T10:03:11Z</time>
      </trkpt>
      <trkpt lat="46.45655" lon="6.08069">
        <ele>1208.2</ele>
        <time>2024-02-04T10:03:18Z</time>
      </trkpt>
      <trkpt lat="46.4565" lon="6.08058">
        <ele>1208.5</ele>
        <time>2024-02-04T10:03:26Z</time>
      </trkpt>
      <trkpt lat="46.4565" lon="6.08044">
        <ele>1208.8</ele>
        <time>2024-02-04T10:03:34Z</time>
      </trkpt>
      <trkpt lat="46.45651" lon="6.0803">
        <ele>1209.1</ele>
        <time>2024-02-04T10:03:42Z</time>
      </trkpt>
      <trkpt lat="46.45652" lon="6.08017">
        <ele>1209</ele>
        <time>2024-02-04T10:03:49Z</time>
      </trkpt>
      <trkpt lat="46.4565" lon="6.08004">
        <ele>1209.6</ele>
        <time>2024-02-04T10:03:57Z</time>
      </trkpt>
      <trkpt lat="46.45647" lon="6.07991">
        <ele>1209.6</ele>
        <time>2024-02-04T10:04:05Z</time>
      </trkpt>
      <trkpt lat="46.45643" lon="6.07979">
        <ele>1209.8</ele>
        <time>2024-02-04T10:04:13Z</time>
      </trkpt>
      <trkpt lat="46.45633" lon="6.07976">
        <ele>1210.5</ele>
        <time>2024-02-04T10:04:21Z</time>
      </trkpt>
      <trkpt lat="46.45624" lon="6.07978">
        <ele>1211.1</ele>
        <time>2024-02-04T10:04:28Z</time>
      </trkpt>
      <trkpt lat="46.45615" lon="6.07985">
        <ele>1212.9</ele>
        <time>2024-02-04T10:04:37Z</time>
      </trkpt>
      <trkpt lat="46.45606" lon="6.0799">
        <ele>1214.6</ele>
        <time>2024-02-04T10:04:46Z</time>
      </trkpt>
      <trkpt lat="46.45596" lon="6.07994">
        <ele>1215.3</ele>
        <time>2024-02-04T10:04:54Z</time>
      </trkpt>
      <trkpt lat="46.45587" lon="6.07994">
        <ele>1215.4</ele>
        <time>2024-02-04T10:05:02Z</time>
      </trkpt>
      <trkpt lat="46.45578" lon="6.07994">
        <ele>1215.3</ele>
        <time>2024-02-04T10:05:11Z</time>
      </trkpt>
      <trkpt lat="46.45568" lon="6.07996">
        <ele>1215.5</ele>
        <time>2024-02-04T10:05:21Z</time>
      </trkpt>
      <trkpt lat="46.45558" lon="6.07999">
        <ele>1215.8</ele>
        <time>2024-02-04T10:05:30Z</time>
      </trkpt>
      <trkpt lat="46.45549" lon="6.07994">
        <ele>1216.4</ele>
        <time>2024-02-04T10:05:40Z</time>
      </trkpt>
      <trkpt lat="46.4554" lon="6.07991">
        <ele>1217.5</ele>
        <time>2024-02-04T10:05:48Z</time>
      </trkpt>
      <trkpt lat="46.45532" lon="6.07984">
        <ele>1217.8</ele>
        <time>2024-02-04T10:05:56Z</time>
      </trkpt>
      <trkpt lat="46.45524" lon="6.07978">
        <ele>1217.7</ele>
        <time>2024-02-04T10:06:05Z</time>
      </trkpt>
      <trkpt lat="46.45515" lon="6.07972">
        <ele>1217.8</ele>
        <time>2024-02-04T10:06:14Z</time>
      </trkpt>
      <trkpt lat="46.45505" lon="6.07969">
        <ele>1218.6</ele>
        <time>2024-02-04T10:06:22Z</time>
      </trkpt>
      <trkpt lat="46.45496" lon="6.0797">
        <ele>1219.8</ele>
        <time>2024-02-04T10:06:29Z</time>
      </trkpt>
      <trkpt lat="46.45487" lon="6.0797">
        <ele>1220.5</ele>
        <time>2024-02-04T10:06:36Z</time>
      </trkpt>
      <trkpt lat="46.45478" lon="6.07974">
        <ele>1221.9</ele>
        <time>2024-02-04T10:06:43Z</time>
      </trkpt>
      <trkpt lat="46.45468" lon="6.07976">
        <ele>1222.7</ele>
        <time>2024-02-04T10:06:51Z</time>
      </trkpt>
      <trkpt lat="46.45459" lon="6.07981">
        <ele>1223.7</ele>
        <time>2024-02-04T10:06:59Z</time>
      </trkpt>
      <trkpt lat="46.45451" lon="6.07984">
        <ele>1224.2</ele>
        <time>2024-02-04T10:07:08Z</time>
      </trkpt>
      <trkpt lat="46.45441" lon="6.07987">
        <ele>1225.1</ele>
        <time>2024-02-04T10:07:18Z</time>
      </trkpt>
      <trkpt lat="46.45433" lon="6.07991">
        <ele>1226.9</ele>
        <time>2024-02-04T10:07:29Z</time>
      </trkpt>
      <trkpt lat="46.45423" lon="6.07994">
        <ele>1228.4</ele>
        <time>2024-02-04T10:07:39Z</time>
      </trkpt>
      <trkpt lat="46.45414" lon="6.07997">
        <ele>1229.7</ele>
        <time>2024-02-04T10:07:51Z</time>
      </trkpt>
      <trkpt lat="46.45407" lon="6.08005">
        <ele>1231.7</ele>
        <time>2024-02-04T10:08:01Z</time>
      </trkpt>
      <trkpt lat="46.45399" lon="6.08012">
        <ele>1233.4</ele>
        <time>2024-02-04T10:08:13Z</time>
      </trkpt>
      <trkpt lat="46.4539" lon="6.08017">
        <ele>1234.3</ele>
        <time>2024-02-04T10:08:21Z</time>
      </trkpt>
      <trkpt lat="46.45381" lon="6.0802">
        <ele>1235</ele>
        <time>2024-02-04T10:08:31Z</time>
      </trkpt>
      <trkpt lat="46.45371" lon="6.08023">
        <ele>1235.6</ele>
        <time>2024-02-04T10:08:40Z</time>
      </trkpt>
      <trkpt lat="46.45363" lon="6.08028">
        <ele>1235.9</ele>
        <time>2024-02-04T10:08:49Z</time>
      </trkpt>
      <trkpt lat="46.45355" lon="6.08034">
        <ele>1238</ele>
        <time>2024-02-04T10:08:59Z</time>
      </trkpt>
      <trkpt lat="46.45347" lon="6.0804">
        <ele>1239.5</ele>
        <time>2024-02-04T10:09:07Z</time>
      </trkpt>
      <trkpt lat="46.45338" lon="6.08044">
        <ele>1240.4</ele>
        <time>2024-02-04T10:09:15Z</time>
      </trkpt>
      <trkpt lat="46.45329" lon="6.08051">
        <ele>1240.5</ele>
        <time>2024-02-04T10:09:25Z</time>
      </trkpt>
      <trkpt lat="46.4532" lon="6.08056">
        <ele>1240.5</ele>
        <time>2024-02-04T10:09:34Z</time>
      </trkpt>
      <trkpt lat="46.45312" lon="6.08065">
        <ele>1241.4</ele>
        <time>2024-02-04T10:09:49Z</time>
      </trkpt>
      <trkpt lat="46.45305" lon="6.08073">
        <ele>1241.6</ele>
        <time>2024-02-04T10:09:55Z</time>
      </trkpt>
      <trkpt lat="46.45297" lon="6.08081">
        <ele>1241.1</ele>
        <time>2024-02-04T10:10:02Z</time>
      </trkpt>
      <trkpt lat="46.45289" lon="6.08091">
        <ele>1241.2</ele>
        <time>2024-02-04T10:10:12Z</time>
      </trkpt>
      <trkpt lat="46.45283" lon="6.08102">
        <ele>1241.4</ele>
        <time>2024-02-04T10:10:19Z</time>
      </trkpt>
      <trkpt lat="46.45275" lon="6.08112">
        <ele>1240.7</ele>
        <time>2024-02-04T10:10:27Z</time>
      </trkpt>
      <trkpt lat="46.45267" lon="6.0812">
        <ele>1241.5</ele>
        <time>2024-02-04T10:10:37Z</time>
      </trkpt>
      <trkpt lat="46.4526" lon="6.08128">
        <ele>1241.8</ele>
        <time>2024-02-04T10:10:46Z</time>
      </trkpt>
      <trkpt lat="46.45252" lon="6.08135">
        <ele>1241.5</ele>
        <time>2024-02-04T10:10:55Z</time>
      </trkpt>
      <trkpt lat="46.45244" lon="6.08142">
        <ele>1241.8</ele>
        <time>2024-02-04T10:11:02Z</time>
      </trkpt>
      <trkpt lat="46.45236" lon="6.08149">
        <ele>1242.3</ele>
        <time>2024-02-04T10:11:10Z</time>
      </trkpt>
      <trkpt lat="46.45228" lon="6.08155">
        <ele>1242.5</ele>
        <time>2024-02-04T10:11:18Z</time>
      </trkpt>
      <trkpt lat="46.45218" lon="6.08159">
        <ele>1242.5</ele>
        <time>2024-02-04T10:11:29Z</time>
      </trkpt>
      <trkpt lat="46.45209" lon="6.08163">
        <ele>1242.3</ele>
        <time>2024-02-04T10:11:38Z</time>
      </trkpt>
      <trkpt lat="46.45201" lon="6.0817">
        <ele>1242.5</ele>
        <time>2024-02-04T10:11:46Z</time>
      </trkpt>
      <trkpt lat="46.45193" lon="6.08178">
        <ele>1243</ele>
        <time>2024-02-04T10:11:57Z</time>
      </trkpt>
      <trkpt lat="46.45184" lon="6.08182">
        <ele>1243.6</ele>
        <time>2024-02-04T10:12:04Z</time>
      </trkpt>
      <trkpt lat="46.45175" lon="6.08189">
        <ele>1243.8</ele>
        <time>2024-02-04T10:12:09Z</time>
      </trkpt>
      <trkpt lat="46.45167" lon="6.08197">
        <ele>1243.8</ele>
        <time>2024-02-04T10:12:15Z</time>
      </trkpt>
      <trkpt lat="46.45159" lon="6.08204">
        <ele>1245.2</ele>
        <time>2024-02-04T10:12:22Z</time>
      </trkpt>
      <trkpt lat="46.4515" lon="6.0821">
        <ele>1245</ele>
        <time>2024-02-04T10:12:29Z</time>
      </trkpt>
      <trkpt lat="46.45142" lon="6.08218">
        <ele>1244.4</ele>
        <time>2024-02-04T10:12:36Z</time>
      </trkpt>
      <trkpt lat="46.45133" lon="6.08227">
        <ele>1244</ele>
        <time>2024-02-04T10:12:43Z</time>
      </trkpt>
      <trkpt lat="46.45127" lon="6.08238">
        <ele>1244.9</ele>
        <time>2024-02-04T10:12:50Z</time>
      </trkpt>
      <trkpt lat="46.45121" lon="6.0825">
        <ele>1245.1</ele>
        <time>2024-02-04T10:12:59Z</time>
      </trkpt>
      <trkpt lat="46.45118" lon="6.08263">
        <ele>1245.2</ele>
        <time>2024-02-04T10:13:08Z</time>
      </trkpt>
      <trkpt lat="46.45114" lon="6.08275">
        <ele>1245.3</ele>
        <time>2024-02-04T10:13:15Z</time>
      </trkpt>
      <trkpt lat="46.45109" lon="6.08288">
        <ele>1245.1</ele>
        <time>2024-02-04T10:13:23Z</time>
      </trkpt>
      <trkpt lat="46.45106" lon="6.083">
        <ele>1245</ele>
        <time>2024-02-04T10:13:29Z</time>
      </trkpt>
      <trkpt lat="46.45104" lon="6.08313">
        <ele>1245.1</ele>
        <time>2024-02-04T10:13:36Z</time>
      </trkpt>
      <trkpt lat="46.45101" lon="6.08327">
        <ele>1244.7</ele>
        <time>2024-02-04T10:13:43Z</time>
      </trkpt>
      <trkpt lat="46.45097" lon="6.08339">
        <ele>1244.2</ele>
        <time>2024-02-04T10:13:51Z</time>
      </trkpt>
      <trkpt lat="46.4509" lon="6.08351">
        <ele>1243.6</ele>
        <time>2024-02-04T10:13:58Z</time>
      </trkpt>
      <trkpt lat="46.45085" lon="6.08363">
        <ele>1243.4</ele>
        <time>2024-02-04T10:14:05Z</time>
      </trkpt>
      <trkpt lat="46.45079" lon="6.08374">
        <ele>1244.2</ele>
        <time>2024-02-04T10:14:11Z</time>
      </trkpt>
      <trkpt lat="46.45073" lon="6.08385">
        <ele>1244.6</ele>
        <time>2024-02-04T10:14:17Z</time>
      </trkpt>
      <trkpt lat="46.45068" lon="6.08397">
        <ele>1244.9</ele>
        <time>2024-02-04T10:14:25Z</time>
      </trkpt>
      <trkpt lat="46.45063" lon="6.08409">
        <ele>1245</ele>
        <time>2024-02-04T10:14:33Z</time>
      </trkpt>
      <trkpt lat="46.45057" lon="6.0842">
        <ele>1244.8</ele>
        <time>2024-02-04T10:14:41Z</time>
      </trkpt>
      <trkpt lat="46.45052" lon="6.08431">
        <ele>1245.8</ele>
        <time>2024-02-04T10:14:48Z</time>
      </trkpt>
      <trkpt lat="46.45046" lon="6.08443">
        <ele>1246.2</ele>
        <time>2024-02-04T10:14:56Z</time>
      </trkpt>
      <trkpt lat="46.45041" lon="6.08454">
        <ele>1246</ele>
        <time>2024-02-04T10:15:04Z</time>
      </trkpt>
      <trkpt lat="46.45034" lon="6.08464">
        <ele>1245.4</ele>
        <time>2024-02-04T10:15:13Z</time>
      </trkpt>
      <trkpt lat="46.45029" lon="6.08477">
        <ele>1245.5</ele>
        <time>2024-02-04T10:15:20Z</time>
      </trkpt>
      <trkpt lat="46.45023" lon="6.08487">
        <ele>1245.3</ele>
        <time>2024-02-04T10:15:28Z</time>
      </trkpt>
      <trkpt lat="46.45017" lon="6.08499">
        <ele>1245.4</ele>
        <time>2024-02-04T10:15:35Z</time>
      </trkpt>
      <trkpt lat="46.45013" lon="6.08513">
        <ele>1244.5</ele>
        <time>2024-02-04T10:15:42Z</time>
      </trkpt>
      <trkpt lat="46.4501" lon="6.08526">
        <ele>1244</ele>
        <time>2024-02-04T10:15:49Z</time>
      </trkpt>
      <trkpt lat="46.45008" lon="6.0854">
        <ele>1243.9</ele>
        <time>2024-02-04T10:15:56Z</time>
      </trkpt>
      <trkpt lat="46.45006" lon="6.08553">
        <ele>1243.8</ele>
        <time>2024-02-04T10:16:02Z</time>
      </trkpt>
      <trkpt lat="46.45003" lon="6.08566">
        <ele>1244.7</ele>
        <time>2024-02-04T10:16:09Z</time>
      </trkpt>
      <trkpt lat="46.44999" lon="6.08578">
        <ele>1245.7</ele>
        <time>2024-02-04T10:16:17Z</time>
      </trkpt>
      <trkpt lat="46.44997" lon="6.08591">
        <ele>1246.9</ele>
        <time>2024-02-04T10:16:24Z</time>
      </trkpt>
      <trkpt lat="46.44991" lon="6.08604">
        <ele>1247.7</ele>
        <time>2024-02-04T10:16:32Z</time>
      </trkpt>
      <trkpt lat="46.44987" lon="6.08616">
        <ele>1247.4</ele>
        <time>2024-02-04T10:16:39Z</time>
      </trkpt>
      <trkpt lat="46.44977" lon="6.08618">
        <ele>1246.3</ele>
        <time>2024-02-04T10:16:46Z</time>
      </trkpt>
      <trkpt lat="46.44967" lon="6.08619">
        <ele>1245</ele>
        <time>2024-02-04T10:16:54Z</time>
      </trkpt>
      <trkpt lat="46.44958" lon="6.08621">
        <ele>1243.7</ele>
        <time>2024-02-04T10:17:00Z</time>
      </trkpt>
      <trkpt lat="46.44949" lon="6.08617">
        <ele>1242.9</ele>
        <time>2024-02-04T10:18:31Z</time>
      </trkpt>
      <trkpt lat="46.44939" lon="6.08613">
        <ele>1241.9</ele>
        <time>2024-02-04T10:18:46Z</time>
      </trkpt>
      <trkpt lat="46.44931" lon="6.08607">
        <ele>1241</ele>
        <time>2024-02-04T10:18:57Z</time>
      </trkpt>
      <trkpt lat="46.44925" lon="6.08597">
        <ele>1240.8</ele>
        <time>2024-02-04T10:19:07Z</time>
      </trkpt>
      <trkpt lat="46.4492" lon="6.08586">
        <ele>1240.5</ele>
        <time>2024-02-04T10:19:15Z</time>
      </trkpt>
      <trkpt lat="46.44913" lon="6.08575">
        <ele>1239.5</ele>
        <time>2024-02-04T10:19:24Z</time>
      </trkpt>
      <trkpt lat="46.44905" lon="6.08566">
        <ele>1238.7</ele>
        <time>2024-02-04T10:19:34Z</time>
      </trkpt>
      <trkpt lat="46.44896" lon="6.08562">
        <ele>1238</ele>
        <time>2024-02-04T10:19:42Z</time>
      </trkpt>
      <trkpt lat="46.44887" lon="6.0856">
        <ele>1237.2</ele>
        <time>2024-02-04T10:19:50Z</time>
      </trkpt>
      <trkpt lat="46.44879" lon="6.08552">
        <ele>1236.6</ele>
        <time>2024-02-04T10:19:58Z</time>
      </trkpt>
      <trkpt lat="46.44876" lon="6.0854">
        <ele>1235.9</ele>
        <time>2024-02-04T10:20:05Z</time>
      </trkpt>
      <trkpt lat="46.44874" lon="6.08527">
        <ele>1235.4</ele>
        <time>2024-02-04T10:20:12Z</time>
      </trkpt>
      <trkpt lat="46.44872" lon="6.08513">
        <ele>1235.4</ele>
        <time>2024-02-04T10:20:20Z</time>
      </trkpt>
      <trkpt lat="46.44868" lon="6.085">
        <ele>1235.5</ele>
        <time>2024-02-04T10:20:28Z</time>
      </trkpt>
      <trkpt lat="46.44861" lon="6.08491">
        <ele>1235.3</ele>
        <time>2024-02-04T10:20:35Z</time>
      </trkpt>
      <trkpt lat="46.44854" lon="6.08481">
        <ele>1235.4</ele>
        <time>2024-02-04T10:20:43Z</time>
      </trkpt>
      <trkpt lat="46.44847" lon="6.08469">
        <ele>1235.5</ele>
        <time>2024-02-04T10:20:52Z</time>
      </trkpt>
      <trkpt lat="46.44843" lon="6.08458">
        <ele>1235.3</ele>
        <time>2024-02-04T10:21:03Z</time>
      </trkpt>
      <trkpt lat="46.44847" lon="6.08469">
        <ele>1235.5</ele>
        <time>2024-02-04T10:21:15Z</time>
      </trkpt>
      <trkpt lat="46.44853" lon="6.08479">
        <ele>1235.4</ele>
        <time>2024-02-04T10:21:22Z</time>
      </trkpt>
      <trkpt lat="46.4486" lon="6.08489">
        <ele>1235.3</ele>
        <time>2024-02-04T10:21:29Z</time>
      </trkpt>
      <trkpt lat="46.44862" lon="6.08502">
        <ele>1235</ele>
        <time>2024-02-04T10:21:39Z</time>
      </trkpt>
      <trkpt lat="46.44859" lon="6.08515">
        <ele>1233.8</ele>
        <time>2024-02-04T10:21:47Z</time>
      </trkpt>
      <trkpt lat="46.44854" lon="6.08528">
        <ele>1232.8</ele>
        <time>2024-02-04T10:21:54Z</time>
      </trkpt>
      <trkpt lat="46.4485" lon="6.08539">
        <ele>1232.7</ele>
        <time>2024-02-04T10:22:01Z</time>
      </trkpt>
      <trkpt lat="46.44843" lon="6.08549">
        <ele>1232.1</ele>
        <time>2024-02-04T10:22:14Z</time>
      </trkpt>
      <trkpt lat="46.44839" lon="6.08561">
        <ele>1231.5</ele>
        <time>2024-02-04T10:22:23Z</time>
      </trkpt>
      <trkpt lat="46.44834" lon="6.08573">
        <ele>1230.5</ele>
        <time>2024-02-04T10:22:31Z</time>
      </trkpt>
      <trkpt lat="46.44829" lon="6.08583">
        <ele>1229.4</ele>
        <time>2024-02-04T10:22:38Z</time>
      </trkpt>
      <trkpt lat="46.44823" lon="6.08595">
        <ele>1227.5</ele>
        <time>2024-02-04T10:22:47Z</time>
      </trkpt>
      <trkpt lat="46.44818" lon="6.08606">
        <ele>1225.7</ele>
        <time>2024-02-04T10:22:57Z</time>
      </trkpt>
      <trkpt lat="46.44813" lon="6.08617">
        <ele>1224</ele>
        <time>2024-02-04T10:23:14Z</time>
      </trkpt>
      <trkpt lat="46.44807" lon="6.08628">
        <ele>1222.5</ele>
        <time>2024-02-04T10:23:24Z</time>
      </trkpt>
      <trkpt lat="46.44804" lon="6.08642">
        <ele>1222.1</ele>
        <time>2024-02-04T10:23:33Z</time>
      </trkpt>
      <trkpt lat="46.448" lon="6.08656">
        <ele>1222.4</ele>
        <time>2024-02-04T10:23:42Z</time>
      </trkpt>
      <trkpt lat="46.44797" lon="6.08668">
        <ele>1222.7</ele>
        <time>2024-02-04T10:23:51Z</time>
      </trkpt>
      <trkpt lat="46.44795" lon="6.08681">
        <ele>1222.8</ele>
        <time>2024-02-04T10:24:01Z</time>
      </trkpt>
      <trkpt lat="46.44792" lon="6.08695">
        <ele>1222.9</ele>
        <time>2024-02-04T10:24:11Z</time>
      </trkpt>
      <trkpt lat="46.44788" lon="6.08708">
        <ele>1222.5</ele>
        <time>2024-02-04T10:24:21Z</time>
      </trkpt>
      <trkpt lat="46.44782" lon="6.0872">
        <ele>1221.9</ele>
        <time>2024-02-04T10:24:30Z</time>
      </trkpt>
      <trkpt lat="46.44778" lon="6.08731">
        <ele>1221</ele>
        <time>2024-02-04T10:24:39Z</time>
      </trkpt>
      <trkpt lat="46.44774" lon="6.08744">
        <ele>1220.1</ele>
        <time>2024-02-04T10:24:47Z</time>
      </trkpt>
      <trkpt lat="46.4477" lon="6.08756">
        <ele>1219.6</ele>
        <time>2024-02-04T10:24:55Z</time>
      </trkpt>
      <trkpt lat="46.44766" lon="6.08769">
        <ele>1219.2</ele>
        <time>2024-02-04T10:25:04Z</time>
      </trkpt>
      <trkpt lat="46.44765" lon="6.08782">
        <ele>1218.9</ele>
        <time>2024-02-04T10:25:14Z</time>
      </trkpt>
      <trkpt lat="46.44761" lon="6.08795">
        <ele>1219.9</ele>
        <time>2024-02-04T10:25:27Z</time>
      </trkpt>
      <trkpt lat="46.44757" lon="6.08807">
        <ele>1221.4</ele>
        <time>2024-02-04T10:25:41Z</time>
      </trkpt>
      <trkpt lat="46.4475" lon="6.08816">
        <ele>1223.5</ele>
        <time>2024-02-04T10:25:50Z</time>
      </trkpt>
      <trkpt lat="46.44743" lon="6.08826">
        <ele>1225.1</ele>
        <time>2024-02-04T10:26:01Z</time>
      </trkpt>
      <trkpt lat="46.44744" lon="6.0884">
        <ele>1225.6</ele>
        <time>2024-02-04T10:26:14Z</time>
      </trkpt>
      <trkpt lat="46.44748" lon="6.08853">
        <ele>1225.8</ele>
        <time>2024-02-04T10:26:23Z</time>
      </trkpt>
      <trkpt lat="46.44751" lon="6.08866">
        <ele>1225.9</ele>
        <time>2024-02-04T10:26:33Z</time>
      </trkpt>
      <trkpt lat="46.44749" lon="6.0888">
        <ele>1226.8</ele>
        <time>2024-02-04T10:26:41Z</time>
      </trkpt>
      <trkpt lat="46.44749" lon="6.08894">
        <ele>1227.3</ele>
        <time>2024-02-04T10:26:49Z</time>
      </trkpt>
      <trkpt lat="46.44749" lon="6.08907">
        <ele>1227.9</ele>
        <time>2024-02-04T10:26:57Z</time>
      </trkpt>
      <trkpt lat="46.44746" lon="6.0892">
        <ele>1228.9</ele>
        <time>2024-02-04T10:27:06Z</time>
      </trkpt>
      <trkpt lat="46.44746" lon="6.08934">
        <ele>1229.3</ele>
        <time>2024-02-04T10:27:15Z</time>
      </trkpt>
      <trkpt lat="46.44748" lon="6.08949">
        <ele>1229.5</ele>
        <time>2024-02-04T10:27:24Z</time>
      </trkpt>
      <trkpt lat="46.44749" lon="6.08963">
        <ele>1229.8</ele>
        <time>2024-02-04T10:27:32Z</time>
      </trkpt>
      <trkpt lat="46.44748" lon="6.08977">
        <ele>1230.6</ele>
        <time>2024-02-04T10:27:41Z</time>
      </trkpt>
      <trkpt lat="46.44747" lon="6.08991">
        <ele>1231.8</ele>
        <time>2024-02-04T10:27:51Z</time>
      </trkpt>
      <trkpt lat="46.44744" lon="6.09004">
        <ele>1232.8</ele>
        <time>2024-02-04T10:27:59Z</time>
      </trkpt>
      <trkpt lat="46.44741" lon="6.09018">
        <ele>1233.6</ele>
        <time>2024-02-04T10:28:09Z</time>
      </trkpt>
      <trkpt lat="46.44739" lon="6.09031">
        <ele>1234.3</ele>
        <time>2024-02-04T10:28:17Z</time>
      </trkpt>
      <trkpt lat="46.44739" lon="6.09046">
        <ele>1234.5</ele>
        <time>2024-02-04T10:28:26Z</time>
      </trkpt>
      <trkpt lat="46.4474" lon="6.09059">
        <ele>1234.4</ele>
        <time>2024-02-04T10:28:35Z</time>
      </trkpt>
      <trkpt lat="46.44741" lon="6.09073">
        <ele>1234.3</ele>
        <time>2024-02-04T10:28:43Z</time>
      </trkpt>
      <trkpt lat="46.44742" lon="6.09087">
        <ele>1234.2</ele>
        <time>2024-02-04T10:28:52Z</time>
      </trkpt>
      <trkpt lat="46.44741" lon="6.09101">
        <ele>1234.1</ele>
        <time>2024-02-04T10:29:01Z</time>
      </trkpt>
      <trkpt lat="46.4474" lon="6.09115">
        <ele>1234.1</ele>
        <time>2024-02-04T10:29:09Z</time>
      </trkpt>
      <trkpt lat="46.44734" lon="6.09128">
        <ele>1234.3</ele>
        <time>2024-02-04T10:29:17Z</time>
      </trkpt>
      <trkpt lat="46.4473" lon="6.09141">
        <ele>1234.4</ele>
        <time>2024-02-04T10:29:24Z</time>
      </trkpt>
      <trkpt lat="46.44728" lon="6.09155">
        <ele>1234.6</ele>
        <time>2024-02-04T10:29:32Z</time>
      </trkpt>
      <trkpt lat="46.44726" lon="6.09168">
        <ele>1234.8</ele>
        <time>2024-02-04T10:29:39Z</time>
      </trkpt>
      <trkpt lat="46.44727" lon="6.09182">
        <ele>1235.8</ele>
        <time>2024-02-04T10:29:48Z</time>
      </trkpt>
      <trkpt lat="46.44728" lon="6.09195">
        <ele>1236.6</ele>
        <time>2024-02-04T10:29:56Z</time>
      </trkpt>
      <trkpt lat="46.44725" lon="6.09209">
        <ele>1236.4</ele>
        <time>2024-02-04T10:30:04Z</time>
      </trkpt>
      <trkpt lat="46.44723" lon="6.09223">
        <ele>1236</ele>
        <time>2024-02-04T10:30:13Z</time>
      </trkpt>
      <trkpt lat="46.44719" lon="6.09236">
        <ele>1235.7</ele>
        <time>2024-02-04T10:30:23Z</time>
      </trkpt>
      <trkpt lat="46.44719" lon="6.0925">
        <ele>1235.3</ele>
        <time>2024-02-04T10:30:37Z</time>
      </trkpt>
      <trkpt lat="46.44711" lon="6.09241">
        <ele>1236</ele>
        <time>2024-02-04T10:31:05Z</time>
      </trkpt>
      <trkpt lat="46.44708" lon="6.09228">
        <ele>1236.4</ele>
        <time>2024-02-04T10:31:13Z</time>
      </trkpt>
      <trkpt lat="46.44703" lon="6.09216">
        <ele>1236.8</ele>
        <time>2024-02-04T10:31:22Z</time>
      </trkpt>
      <trkpt lat="46.44698" lon="6.09203">
        <ele>1237</ele>
        <time>2024-02-04T10:31:30Z</time>
      </trkpt>
      <trkpt lat="46.44692" lon="6.09192">
        <ele>1237.2</ele>
        <time>2024-02-04T10:31:38Z</time>
      </trkpt>
      <trkpt lat="46.44686" lon="6.09181">
        <ele>1237.6</ele>
        <time>2024-02-04T10:31:47Z</time>
      </trkpt>
      <trkpt lat="46.44682" lon="6.09168">
        <ele>1237.9</ele>
        <time>2024-02-04T10:31:56Z</time>
      </trkpt>
      <trkpt lat="46.44676" lon="6.09155">
        <ele>1238.4</ele>
        <time>2024-02-04T10:32:04Z</time>
      </trkpt>
      <trkpt lat="46.44672" lon="6.09144">
        <ele>1238.8</ele>
        <time>2024-02-04T10:32:12Z</time>
      </trkpt>
      <trkpt lat="46.44667" lon="6.09132">
        <ele>1239.2</ele>
        <time>2024-02-04T10:32:20Z</time>
      </trkpt>
      <trkpt lat="46.44661" lon="6.09121">
        <ele>1239.9</ele>
        <time>2024-02-04T10:32:28Z</time>
      </trkpt>
      <trkpt lat="46.44655" lon="6.09111">
        <ele>1240</ele>
        <time>2024-02-04T10:32:36Z</time>
      </trkpt>
      <trkpt lat="46.44647" lon="6.09103">
        <ele>1240</ele>
        <time>2024-02-04T10:32:44Z</time>
      </trkpt>
      <trkpt lat="46.44641" lon="6.09092">
        <ele>1240</ele>
        <time>2024-02-04T10:32:54Z</time>
      </trkpt>
      <trkpt lat="46.44632" lon="6.09088">
        <ele>1240.1</ele>
        <time>2024-02-04T10:33:03Z</time>
      </trkpt>
      <trkpt lat="46.44624" lon="6.09078">
        <ele>1239.8</ele>
        <time>2024-02-04T10:33:11Z</time>
      </trkpt>
      <trkpt lat="46.44617" lon="6.09069">
        <ele>1239.2</ele>
        <time>2024-02-04T10:33:19Z</time>
      </trkpt>
      <trkpt lat="46.4461" lon="6.09061">
        <ele>1238.5</ele>
        <time>2024-02-04T10:33:26Z</time>
      </trkpt>
      <trkpt lat="46.44602" lon="6.09053">
        <ele>1238.7</ele>
        <time>2024-02-04T10:33:34Z</time>
      </trkpt>
      <trkpt lat="46.44595" lon="6.09045">
        <ele>1239</ele>
        <time>2024-02-04T10:33:42Z</time>
      </trkpt>
      <trkpt lat="46.44588" lon="6.09036">
        <ele>1238.7</ele>
        <time>2024-02-04T10:33:49Z</time>
      </trkpt>
      <trkpt lat="46.4458" lon="6.09026">
        <ele>1237.9</ele>
        <time>2024-02-04T10:33:58Z</time>
      </trkpt>
      <trkpt lat="46.44574" lon="6.09014">
        <ele>1237.8</ele>
        <time>2024-02-04T10:34:08Z</time>
      </trkpt>
      <trkpt lat="46.44568" lon="6.09004">
        <ele>1237.4</ele>
        <time>2024-02-04T10:34:15Z</time>
      </trkpt>
      <trkpt lat="46.44562" lon="6.08993">
        <ele>1236.9</ele>
        <time>2024-02-04T10:34:22Z</time>
      </trkpt>
      <trkpt lat="46.44557" lon="6.08981">
        <ele>1236.8</ele>
        <time>2024-02-04T10:34:29Z</time>
      </trkpt>
      <trkpt lat="46.44553" lon="6.0897">
        <ele>1236.9</ele>
        <time>2024-02-04T10:34:36Z</time>
      </trkpt>
      <trkpt lat="46.44551" lon="6.08956">
        <ele>1236.8</ele>
        <time>2024-02-04T10:34:43Z</time>
      </trkpt>
      <trkpt lat="46.44549" lon="6.08942">
        <ele>1236.7</ele>
        <time>2024-02-04T10:34:51Z</time>
      </trkpt>
      <trkpt lat="46.44546" lon="6.08929">
        <ele>1236.3</ele>
        <time>2024-02-04T10:35:00Z</time>
      </trkpt>
      <trkpt lat="46.44542" lon="6.08917">
        <ele>1236</ele>
        <time>2024-02-04T10:35:08Z</time>
      </trkpt>
      <trkpt lat="46.44537" lon="6.08905">
        <ele>1236</ele>
        <time>2024-02-04T10:35:16Z</time>
      </trkpt>
      <trkpt lat="46.44532" lon="6.08893">
        <ele>1236</ele>
        <time>2024-02-04T10:35:25Z</time>
      </trkpt>
      <trkpt lat="46.44527" lon="6.08881">
        <ele>1236</ele>
        <time>2024-02-04T10:35:33Z</time>
      </trkpt>
      <trkpt lat="46.44522" lon="6.08869">
        <ele>1236.3</ele>
        <time>2024-02-04T10:35:41Z</time>
      </trkpt>
      <trkpt lat="46.44517" lon="6.08858">
        <ele>1236.3</ele>
        <time>2024-02-04T10:35:48Z</time>
      </trkpt>
      <trkpt lat="46.4451" lon="6.08848">
        <ele>1236.3</ele>
        <time>2024-02-04T10:35:57Z</time>
      </trkpt>
      <trkpt lat="46.44503" lon="6.08838">
        <ele>1236.2</ele>
        <time>2024-02-04T10:36:05Z</time>
      </trkpt>
      <trkpt lat="46.44497" lon="6.08828">
        <ele>1235.9</ele>
        <time>2024-02-04T10:36:13Z</time>
      </trkpt>
      <trkpt lat="46.44488" lon="6.08822">
        <ele>1235.5</ele>
        <time>2024-02-04T10:36:21Z</time>
      </trkpt>
      <trkpt lat="46.44479" lon="6.08824">
        <ele>1235.6</ele>
        <time>2024-02-04T10:36:29Z</time>
      </trkpt>
      <trkpt lat="46.44469" lon="6.08826">
        <ele>1235.9</ele>
        <time>2024-02-04T10:36:37Z</time>
      </trkpt>
      <trkpt lat="46.4446" lon="6.08826">
        <ele>1235.9</ele>
        <time>2024-02-04T10:36:44Z</time>
      </trkpt>
      <trkpt lat="46.44451" lon="6.08821">
        <ele>1235.5</ele>
        <time>2024-02-04T10:36:53Z</time>
      </trkpt>
      <trkpt lat="46.44443" lon="6.08813">
        <ele>1235.3</ele>
        <time>2024-02-04T10:37:01Z</time>
      </trkpt>
      <trkpt lat="46.44436" lon="6.08804">
        <ele>1235.1</ele>
        <time>2024-02-04T10:37:09Z</time>
      </trkpt>
      <trkpt lat="46.44427" lon="6.08798">
        <ele>1234.5</ele>
        <time>2024-02-04T10:37:17Z</time>
      </trkpt>
      <trkpt lat="46.44418" lon="6.08793">
        <ele>1234.1</ele>
        <time>2024-02-04T10:37:25Z</time>
      </trkpt>
      <trkpt lat="46.44409" lon="6.08788">
        <ele>1233.9</ele>
        <time>2024-02-04T10:37:33Z</time>
      </trkpt>
      <trkpt lat="46.444" lon="6.08781">
        <ele>1233.6</ele>
        <time>2024-02-04T10:37:41Z</time>
      </trkpt>
      <trkpt lat="46.44393" lon="6.08774">
        <ele>1233.6</ele>
        <time>2024-02-04T10:37:48Z</time>
      </trkpt>
      <trkpt lat="46.44384" lon="6.08766">
        <ele>1234.1</ele>
        <time>2024-02-04T10:37:56Z</time>
      </trkpt>
      <trkpt lat="46.44376" lon="6.08774">
        <ele>1235.2</ele>
        <time>2024-02-04T10:38:06Z</time>
      </trkpt>
      <trkpt lat="46.44372" lon="6.08785">
        <ele>1236.5</ele>
        <time>2024-02-04T10:38:47Z</time>
      </trkpt>
      <trkpt lat="46.44363" lon="6.0879">
        <ele>1237.7</ele>
        <time>2024-02-04T10:38:56Z</time>
      </trkpt>
      <trkpt lat="46.44355" lon="6.08798">
        <ele>1239.8</ele>
        <time>2024-02-04T10:39:08Z</time>
      </trkpt>
      <trkpt lat="46.44351" lon="6.08811">
        <ele>1241.5</ele>
        <time>2024-02-04T10:39:18Z</time>
      </trkpt>
      <trkpt lat="46.44345" lon="6.08821">
        <ele>1242.7</ele>
        <time>2024-02-04T10:39:28Z</time>
      </trkpt>
      <trkpt lat="46.44337" lon="6.08831">
        <ele>1243.6</ele>
        <time>2024-02-04T10:39:38Z</time>
      </trkpt>
      <trkpt lat="46.44331" lon="6.08841">
        <ele>1244.2</ele>
        <time>2024-02-04T10:39:49Z</time>
      </trkpt>
      <trkpt lat="46.44324" lon="6.08849">
        <ele>1244.8</ele>
        <time>2024-02-04T10:39:59Z</time>
      </trkpt>
      <trkpt lat="46.44319" lon="6.08861">
        <ele>1245</ele>
        <time>2024-02-04T10:40:11Z</time>
      </trkpt>
      <trkpt lat="46.44316" lon="6.08874">
        <ele>1245.5</ele>
        <time>2024-02-04T10:40:26Z</time>
      </trkpt>
      <trkpt lat="46.44311" lon="6.08886">
        <ele>1246.3</ele>
        <time>2024-02-04T10:40:35Z</time>
      </trkpt>
      <trkpt lat="46.44304" lon="6.08896">
        <ele>1247.6</ele>
        <time>2024-02-04T10:40:42Z</time>
      </trkpt>
      <trkpt lat="46.44301" lon="6.08909">
        <ele>1248.7</ele>
        <time>2024-02-04T10:40:51Z</time>
      </trkpt>
      <trkpt lat="46.44298" lon="6.08922">
        <ele>1249.4</ele>
        <time>2024-02-04T10:41:03Z</time>
      </trkpt>
      <trkpt lat="46.44293" lon="6.08934">
        <ele>1250</ele>
        <time>2024-02-04T10:41:14Z</time>
      </trkpt>
      <trkpt lat="46.44287" lon="6.08945">
        <ele>1250.3</ele>
        <time>2024-02-04T10:41:25Z</time>
      </trkpt>
      <trkpt lat="46.44281" lon="6.08955">
        <ele>1251.2</ele>
        <time>2024-02-04T10:41:34Z</time>
      </trkpt>
      <trkpt lat="46.44276" lon="6.08968">
        <ele>1251.9</ele>
        <time>2024-02-04T10:41:43Z</time>
      </trkpt>
      <trkpt lat="46.44271" lon="6.0898">
        <ele>1252.2</ele>
        <time>2024-02-04T10:41:53Z</time>
      </trkpt>
      <trkpt lat="46.44266" lon="6.08993">
        <ele>1252.1</ele>
        <time>2024-02-04T10:42:02Z</time>
      </trkpt>
      <trkpt lat="46.44261" lon="6.09004">
        <ele>1252.1</ele>
        <time>2024-02-04T10:42:13Z</time>
      </trkpt>
      <trkpt lat="46.44253" lon="6.09013">
        <ele>1252</ele>
        <time>2024-02-04T10:42:23Z</time>
      </trkpt>
      <trkpt lat="46.44246" lon="6.09021">
        <ele>1252.3</ele>
        <time>2024-02-04T10:42:35Z</time>
      </trkpt>
      <trkpt lat="46.44237" lon="6.09022">
        <ele>1253</ele>
        <time>2024-02-04T10:42:44Z</time>
      </trkpt>
      <trkpt lat="46.44227" lon="6.09022">
        <ele>1253.7</ele>
        <time>2024-02-04T10:42:53Z</time>
      </trkpt>
      <trkpt lat="46.44218" lon="6.09021">
        <ele>1254.3</ele>
        <time>2024-02-04T10:43:02Z</time>
      </trkpt>
      <trkpt lat="46.44208" lon="6.09022">
        <ele>1254.9</ele>
        <time>2024-02-04T10:43:11Z</time>
      </trkpt>
      <trkpt lat="46.442" lon="6.09027">
        <ele>1255.6</ele>
        <time>2024-02-04T10:43:21Z</time>
      </trkpt>
      <trkpt lat="46.44192" lon="6.09034">
        <ele>1256.4</ele>
        <time>2024-02-04T10:43:31Z</time>
      </trkpt>
      <trkpt lat="46.44186" lon="6.09044">
        <ele>1257.4</ele>
        <time>2024-02-04T10:43:40Z</time>
      </trkpt>
      <trkpt lat="46.44179" lon="6.09052">
        <ele>1258.5</ele>
        <time>2024-02-04T10:43:49Z</time>
      </trkpt>
      <trkpt lat="46.44174" lon="6.09064">
        <ele>1260.2</ele>
        <time>2024-02-04T10:44:01Z</time>
      </trkpt>
      <trkpt lat="46.4417" lon="6.09076">
        <ele>1262.1</ele>
        <time>2024-02-04T10:44:12Z</time>
      </trkpt>
      <trkpt lat="46.44167" lon="6.0909">
        <ele>1263.5</ele>
        <time>2024-02-04T10:44:23Z</time>
      </trkpt>
      <trkpt lat="46.44168" lon="6.09104">
        <ele>1264.4</ele>
        <time>2024-02-04T10:44:32Z</time>
      </trkpt>
      <trkpt lat="46.44163" lon="6.09115">
        <ele>1266</ele>
        <time>2024-02-04T10:44:41Z</time>
      </trkpt>
      <trkpt lat="46.44154" lon="6.09122">
        <ele>1267.8</ele>
        <time>2024-02-04T10:44:50Z</time>
      </trkpt>
      <trkpt lat="46.44147" lon="6.0913">
        <ele>1269.5</ele>
        <time>2024-02-04T10:45:02Z</time>
      </trkpt>
      <trkpt lat="46.44138" lon="6.09134">
        <ele>1271</ele>
        <time>2024-02-04T10:45:15Z</time>
      </trkpt>
      <trkpt lat="46.44129" lon="6.09139">
        <ele>1272.9</ele>
        <time>2024-02-04T10:45:28Z</time>
      </trkpt>
      <trkpt lat="46.4412" lon="6.09135">
        <ele>1274.4</ele>
        <time>2024-02-04T10:45:40Z</time>
      </trkpt>
      <trkpt lat="46.44111" lon="6.09141">
        <ele>1276.2</ele>
        <time>2024-02-04T10:45:51Z</time>
      </trkpt>
      <trkpt lat="46.44103" lon="6.09148">
        <ele>1278.1</ele>
        <time>2024-02-04T10:46:03Z</time>
      </trkpt>
      <trkpt lat="46.44094" lon="6.09154">
        <ele>1279.8</ele>
        <time>2024-02-04T10:46:16Z</time>
      </trkpt>
      <trkpt lat="46.44085" lon="6.09157">
        <ele>1281.1</ele>
        <time>2024-02-04T10:46:28Z</time>
      </trkpt>
      <trkpt lat="46.44076" lon="6.09161">
        <ele>1282.4</ele>
        <time>2024-02-04T10:46:39Z</time>
      </trkpt>
      <trkpt lat="46.44068" lon="6.09167">
        <ele>1283.7</ele>
        <time>2024-02-04T10:46:51Z</time>
      </trkpt>
      <trkpt lat="46.44059" lon="6.09172">
        <ele>1285</ele>
        <time>2024-02-04T10:47:02Z</time>
      </trkpt>
      <trkpt lat="46.4405" lon="6.0917">
        <ele>1285.6</ele>
        <time>2024-02-04T10:47:12Z</time>
      </trkpt>
      <trkpt lat="46.44041" lon="6.09177">
        <ele>1286.7</ele>
        <time>2024-02-04T10:47:24Z</time>
      </trkpt>
      <trkpt lat="46.44033" lon="6.09182">
        <ele>1287.7</ele>
        <time>2024-02-04T10:47:40Z</time>
      </trkpt>
      <trkpt lat="46.44025" lon="6.09188">
        <ele>1288.9</ele>
        <time>2024-02-04T10:47:51Z</time>
      </trkpt>
      <trkpt lat="46.44016" lon="6.09193">
        <ele>1290.1</ele>
        <time>2024-02-04T10:48:04Z</time>
      </trkpt>
      <trkpt lat="46.44014" lon="6.09207">
        <ele>1291.4</ele>
        <time>2024-02-04T10:48:53Z</time>
      </trkpt>
      <trkpt lat="46.44017" lon="6.0922">
        <ele>1291.8</ele>
        <time>2024-02-04T10:49:04Z</time>
      </trkpt>
      <trkpt lat="46.44011" lon="6.09231">
        <ele>1294</ele>
        <time>2024-02-04T10:49:20Z</time>
      </trkpt>
      <trkpt lat="46.44001" lon="6.09231">
        <ele>1296</ele>
        <time>2024-02-04T10:49:28Z</time>
      </trkpt>
      <trkpt lat="46.43992" lon="6.0923">
        <ele>1297.8</ele>
        <time>2024-02-04T10:49:43Z</time>
      </trkpt>
      <trkpt lat="46.43982" lon="6.09231">
        <ele>1299.9</ele>
        <time>2024-02-04T10:50:02Z</time>
      </trkpt>
      <trkpt lat="46.43973" lon="6.09233">
        <ele>1302</ele>
        <time>2024-02-04T10:50:16Z</time>
      </trkpt>
      <trkpt lat="46.43963" lon="6.09232">
        <ele>1304</ele>
        <time>2024-02-04T10:50:31Z</time>
      </trkpt>
      <trkpt lat="46.43954" lon="6.09232">
        <ele>1306.3</ele>
        <time>2024-02-04T10:50:45Z</time>
      </trkpt>
      <trkpt lat="46.43945" lon="6.0923">
        <ele>1308.2</ele>
        <time>2024-02-04T10:50:59Z</time>
      </trkpt>
      <trkpt lat="46.43937" lon="6.09223">
        <ele>1310</ele>
        <time>2024-02-04T10:51:14Z</time>
      </trkpt>
      <trkpt lat="46.43928" lon="6.09219">
        <ele>1311.8</ele>
        <time>2024-02-04T10:51:47Z</time>
      </trkpt>
      <trkpt lat="46.4392" lon="6.09226">
        <ele>1314.5</ele>
        <time>2024-02-04T10:51:59Z</time>
      </trkpt>
      <trkpt lat="46.43911" lon="6.0923">
        <ele>1317.3</ele>
        <time>2024-02-04T10:52:13Z</time>
      </trkpt>
      <trkpt lat="46.43905" lon="6.0924">
        <ele>1319.9</ele>
        <time>2024-02-04T10:52:27Z</time>
      </trkpt>
      <trkpt lat="46.43906" lon="6.09253">
        <ele>1320.8</ele>
        <time>2024-02-04T10:53:00Z</time>
      </trkpt>
      <trkpt lat="46.43897" lon="6.09258">
        <ele>1323</ele>
        <time>2024-02-04T10:53:10Z</time>
      </trkpt>
      <trkpt lat="46.43888" lon="6.09264">
        <ele>1325.1</ele>
        <time>2024-02-04T10:53:21Z</time>
      </trkpt>
      <trkpt lat="46.4388" lon="6.09267">
        <ele>1327.1</ele>
        <time>2024-02-04T10:53:31Z</time>
      </trkpt>
      <trkpt lat="46.43872" lon="6.09275">
        <ele>1329.2</ele>
        <time>2024-02-04T10:53:43Z</time>
      </trkpt>
      <trkpt lat="46.43867" lon="6.09286">
        <ele>1330.8</ele>
        <time>2024-02-04T10:54:03Z</time>
      </trkpt>
      <trkpt lat="46.43861" lon="6.09296">
        <ele>1332.1</ele>
        <time>2024-02-04T10:54:20Z</time>
      </trkpt>
      <trkpt lat="46.43852" lon="6.09302">
        <ele>1334.6</ele>
        <time>2024-02-04T10:54:35Z</time>
      </trkpt>
      <trkpt lat="46.43847" lon="6.09312">
        <ele>1336.9</ele>
        <time>2024-02-04T10:54:50Z</time>
      </trkpt>
      <trkpt lat="46.43842" lon="6.09324">
        <ele>1339</ele>
        <time>2024-02-04T10:55:05Z</time>
      </trkpt>
      <trkpt lat="46.43833" lon="6.09328">
        <ele>1340.1</ele>
        <time>2024-02-04T10:55:19Z</time>
      </trkpt>
      <trkpt lat="46.43825" lon="6.09337">
        <ele>1341</ele>
        <time>2024-02-04T10:55:28Z</time>
      </trkpt>
      <trkpt lat="46.43816" lon="6.09341">
        <ele>1342</ele>
        <time>2024-02-04T10:55:39Z</time>
      </trkpt>
      <trkpt lat="46.43808" lon="6.09349">
        <ele>1343</ele>
        <time>2024-02-04T10:55:54Z</time>
      </trkpt>
      <trkpt lat="46.43786" lon="6.09351">
        <ele>1346.2</ele>
        <time>2024-02-04T10:56:21Z</time>
      </trkpt>
      <trkpt lat="46.43795" lon="6.09355">
        <ele>1344.9</ele>
        <time>2024-02-04T10:56:30Z</time>
      </trkpt>
      <trkpt lat="46.43803" lon="6.09362">
        <ele>1344.4</ele>
        <time>2024-02-04T10:56:59Z</time>
      </trkpt>
      <trkpt lat="46.43793" lon="6.09363">
        <ele>1345.8</ele>
        <time>2024-02-04T11:01:02Z</time>
      </trkpt>
      <trkpt lat="46.43784" lon="6.09366">
        <ele>1347.6</ele>
        <time>2024-02-04T11:01:06Z</time>
      </trkpt>
      <trkpt lat="46.43775" lon="6.09372">
        <ele>1350.2</ele>
        <time>2024-02-04T11:01:31Z</time>
      </trkpt>
      <trkpt lat="46.43767" lon="6.09378">
        <ele>1353.2</ele>
        <time>2024-02-04T11:01:46Z</time>
      </trkpt>
      <trkpt lat="46.43758" lon="6.09381">
        <ele>1355.7</ele>
        <time>2024-02-04T11:02:24Z</time>
      </trkpt>
      <trkpt lat="46.43751" lon="6.0939">
        <ele>1359</ele>
        <time>2024-02-04T11:02:43Z</time>
      </trkpt>
      <trkpt lat="46.43745" lon="6.09401">
        <ele>1361.6</ele>
        <time>2024-02-04T11:02:56Z</time>
      </trkpt>
      <trkpt lat="46.43739" lon="6.09411">
        <ele>1363.8</ele>
        <time>2024-02-04T11:03:06Z</time>
      </trkpt>
      <trkpt lat="46.4373" lon="6.09414">
        <ele>1365</ele>
        <time>2024-02-04T11:03:14Z</time>
      </trkpt>
      <trkpt lat="46.43721" lon="6.09416">
        <ele>1366.1</ele>
        <time>2024-02-04T11:03:24Z</time>
      </trkpt>
      <trkpt lat="46.43711" lon="6.09418">
        <ele>1367.9</ele>
        <time>2024-02-04T11:03:33Z</time>
      </trkpt>
      <trkpt lat="46.43701" lon="6.0942">
        <ele>1370.2</ele>
        <time>2024-02-04T11:03:43Z</time>
      </trkpt>
      <trkpt lat="46.43693" lon="6.09428">
        <ele>1374</ele>
        <time>2024-02-04T11:03:54Z</time>
      </trkpt>
      <trkpt lat="46.43684" lon="6.09434">
        <ele>1377</ele>
        <time>2024-02-04T11:04:07Z</time>
      </trkpt>
      <trkpt lat="46.43676" lon="6.0944">
        <ele>1377.9</ele>
        <time>2024-02-04T11:04:22Z</time>
      </trkpt>
      <trkpt lat="46.43667" lon="6.09444">
        <ele>1377.1</ele>
        <time>2024-02-04T11:04:35Z</time>
      </trkpt>
      <trkpt lat="46.4366" lon="6.09451">
        <ele>1382</ele>
        <time>2024-02-04T11:04:47Z</time>
      </trkpt>
      <trkpt lat="46.43652" lon="6.09458">
        <ele>1385.4</ele>
        <time>2024-02-04T11:05:05Z</time>
      </trkpt>
      <trkpt lat="46.43644" lon="6.09466">
        <ele>1387.1</ele>
        <time>2024-02-04T11:05:25Z</time>
      </trkpt>
      <trkpt lat="46.43637" lon="6.09473">
        <ele>1387.8</ele>
        <time>2024-02-04T11:05:37Z</time>
      </trkpt>
      <trkpt lat="46.43628" lon="6.09478">
        <ele>1391.5</ele>
        <time>2024-02-04T11:05:52Z</time>
      </trkpt>
      <trkpt lat="46.43622" lon="6.09488">
        <ele>1395.3</ele>
        <time>2024-02-04T11:06:52Z</time>
      </trkpt>
      <trkpt lat="46.43613" lon="6.09493">
        <ele>1398.2</ele>
        <time>2024-02-04T11:07:03Z</time>
      </trkpt>
      <trkpt lat="46.43605" lon="6.09496">
        <ele>1400.5</ele>
        <time>2024-02-04T11:07:14Z</time>
      </trkpt>
      <trkpt lat="46.43596" lon="6.095">
        <ele>1402.8</ele>
        <time>2024-02-04T11:07:31Z</time>
      </trkpt>
      <trkpt lat="46.4359" lon="6.09511">
        <ele>1405.8</ele>
        <time>2024-02-04T11:08:05Z</time>
      </trkpt>
      <trkpt lat="46.43581" lon="6.09513">
        <ele>1407.3</ele>
        <time>2024-02-04T11:09:03Z</time>
      </trkpt>
      <trkpt lat="46.43575" lon="6.09524">
        <ele>1409</ele>
        <time>2024-02-04T11:10:08Z</time>
      </trkpt>
      <trkpt lat="46.43568" lon="6.09533">
        <ele>1409.8</ele>
        <time>2024-02-04T11:10:18Z</time>
      </trkpt>
      <trkpt lat="46.43561" lon="6.09542">
        <ele>1410.1</ele>
        <time>2024-02-04T11:10:28Z</time>
      </trkpt>
      <trkpt lat="46.43554" lon="6.09549">
        <ele>1410.5</ele>
        <time>2024-02-04T11:10:39Z</time>
      </trkpt>
      <trkpt lat="46.43544" lon="6.09549">
        <ele>1413</ele>
        <time>2024-02-04T11:11:08Z</time>
      </trkpt>
      <trkpt lat="46.43537" lon="6.09556">
        <ele>1414.9</ele>
        <time>2024-02-04T11:11:22Z</time>
      </trkpt>
      <trkpt lat="46.43528" lon="6.09561">
        <ele>1418</ele>
        <time>2024-02-04T11:11:42Z</time>
      </trkpt>
      <trkpt lat="46.4352" lon="6.09567">
        <ele>1422.6</ele>
        <time>2024-02-04T11:12:03Z</time>
      </trkpt>
      <trkpt lat="46.43511" lon="6.09571">
        <ele>1426.5</ele>
        <time>2024-02-04T11:12:20Z</time>
      </trkpt>
      <trkpt lat="46.43506" lon="6.09583">
        <ele>1427.7</ele>
        <time>2024-02-04T11:12:35Z</time>
      </trkpt>
      <trkpt lat="46.43502" lon="6.09595">
        <ele>1430.4</ele>
        <time>2024-02-04T11:12:51Z</time>
      </trkpt>
      <trkpt lat="46.43496" lon="6.09606">
        <ele>1432.3</ele>
        <time>2024-02-04T11:13:07Z</time>
      </trkpt>
      <trkpt lat="46.43489" lon="6.09614">
        <ele>1432.5</ele>
        <time>2024-02-04T11:13:25Z</time>
      </trkpt>
      <trkpt lat="46.4348" lon="6.09612">
        <ele>1432.3</ele>
        <time>2024-02-04T11:13:42Z</time>
      </trkpt>
      <trkpt lat="46.43471" lon="6.09618">
        <ele>1432.1</ele>
        <time>2024-02-04T11:16:21Z</time>
      </trkpt>
      <trkpt lat="46.43461" lon="6.09617">
        <ele>1433.2</ele>
        <time>2024-02-04T11:16:31Z</time>
      </trkpt>
      <trkpt lat="46.43452" lon="6.09613">
        <ele>1434.2</ele>
        <time>2024-02-04T11:17:33Z</time>
      </trkpt>
      <trkpt lat="46.43443" lon="6.09616">
        <ele>1435.1</ele>
        <time>2024-02-04T11:17:43Z</time>
      </trkpt>
      <trkpt lat="46.43434" lon="6.09621">
        <ele>1435.9</ele>
        <time>2024-02-04T11:17:52Z</time>
      </trkpt>
      <trkpt lat="46.43425" lon="6.09621">
        <ele>1436.7</ele>
        <time>2024-02-04T11:18:01Z</time>
      </trkpt>
      <trkpt lat="46.43416" lon="6.09614">
        <ele>1437.2</ele>
        <time>2024-02-04T11:18:10Z</time>
      </trkpt>
      <trkpt lat="46.43408" lon="6.09606">
        <ele>1439.4</ele>
        <time>2024-02-04T11:18:22Z</time>
      </trkpt>
      <trkpt lat="46.43404" lon="6.09594">
        <ele>1441.3</ele>
        <time>2024-02-04T11:18:31Z</time>
      </trkpt>
      <trkpt lat="46.43402" lon="6.09581">
        <ele>1442.8</ele>
        <time>2024-02-04T11:18:40Z</time>
      </trkpt>
      <trkpt lat="46.43396" lon="6.09571">
        <ele>1444</ele>
        <time>2024-02-04T11:18:50Z</time>
      </trkpt>
      <trkpt lat="46.43387" lon="6.09572">
        <ele>1444.8</ele>
        <time>2024-02-04T11:19:03Z</time>
      </trkpt>
      <trkpt lat="46.43377" lon="6.09572">
        <ele>1446.6</ele>
        <time>2024-02-04T11:19:21Z</time>
      </trkpt>
      <trkpt lat="46.43369" lon="6.0958">
        <ele>1448.2</ele>
        <time>2024-02-04T11:19:35Z</time>
      </trkpt>
      <trkpt lat="46.43362" lon="6.09587">
        <ele>1449.9</ele>
        <time>2024-02-04T11:19:48Z</time>
      </trkpt>
      <trkpt lat="46.43354" lon="6.09594">
        <ele>1451.4</ele>
        <time>2024-02-04T11:20:06Z</time>
      </trkpt>
      <trkpt lat="46.43345" lon="6.09598">
        <ele>1453.3</ele>
        <time>2024-02-04T11:20:19Z</time>
      </trkpt>
      <trkpt lat="46.43336" lon="6.09602">
        <ele>1455.5</ele>
        <time>2024-02-04T11:20:32Z</time>
      </trkpt>
      <trkpt lat="46.43327" lon="6.09607">
        <ele>1458.3</ele>
        <time>2024-02-04T11:20:46Z</time>
      </trkpt>
      <trkpt lat="46.43318" lon="6.09604">
        <ele>1460.5</ele>
        <time>2024-02-04T11:21:07Z</time>
      </trkpt>
      <trkpt lat="46.43309" lon="6.09609">
        <ele>1463.6</ele>
        <time>2024-02-04T11:21:21Z</time>
      </trkpt>
      <trkpt lat="46.43305" lon="6.09621">
        <ele>1465.8</ele>
        <time>2024-02-04T11:21:34Z</time>
      </trkpt>
      <trkpt lat="46.43297" lon="6.09626">
        <ele>1467.2</ele>
        <time>2024-02-04T11:21:46Z</time>
      </trkpt>
      <trkpt lat="46.4329" lon="6.09636">
        <ele>1469</ele>
        <time>2024-02-04T11:21:56Z</time>
      </trkpt>
      <trkpt lat="46.43284" lon="6.09646">
        <ele>1471</ele>
        <time>2024-02-04T11:22:12Z</time>
      </trkpt>
      <trkpt lat="46.43279" lon="6.09658">
        <ele>1473.4</ele>
        <time>2024-02-04T11:22:29Z</time>
      </trkpt>
      <trkpt lat="46.43271" lon="6.09665">
        <ele>1476</ele>
        <time>2024-02-04T11:22:42Z</time>
      </trkpt>
      <trkpt lat="46.43266" lon="6.09676">
        <ele>1478</ele>
        <time>2024-02-04T11:24:01Z</time>
      </trkpt>
      <trkpt lat="46.43261" lon="6.09687">
        <ele>1480</ele>
        <time>2024-02-04T11:24:13Z</time>
      </trkpt>
      <trkpt lat="46.43253" lon="6.09695">
        <ele>1482.4</ele>
        <time>2024-02-04T11:24:26Z</time>
      </trkpt>
      <trkpt lat="46.43252" lon="6.09708">
        <ele>1484.4</ele>
        <time>2024-02-04T11:24:41Z</time>
      </trkpt>
      <trkpt lat="46.43246" lon="6.09718">
        <ele>1487</ele>
        <time>2024-02-04T11:24:56Z</time>
      </trkpt>
      <trkpt lat="46.43241" lon="6.0973">
        <ele>1489.4</ele>
        <time>2024-02-04T11:25:14Z</time>
      </trkpt>
      <trkpt lat="46.43235" lon="6.0974">
        <ele>1492.1</ele>
        <time>2024-02-04T11:25:32Z</time>
      </trkpt>
      <trkpt lat="46.43229" lon="6.0975">
        <ele>1494.8</ele>
        <time>2024-02-04T11:25:45Z</time>
      </trkpt>
      <trkpt lat="46.43224" lon="6.09762">
        <ele>1497.2</ele>
        <time>2024-02-04T11:25:59Z</time>
      </trkpt>
      <trkpt lat="46.43217" lon="6.09771">
        <ele>1499.7</ele>
        <time>2024-02-04T11:26:16Z</time>
      </trkpt>
      <trkpt lat="46.4321" lon="6.0978">
        <ele>1502</ele>
        <time>2024-02-04T11:26:30Z</time>
      </trkpt>
      <trkpt lat="46.43206" lon="6.09793">
        <ele>1503.9</ele>
        <time>2024-02-04T11:26:57Z</time>
      </trkpt>
      <trkpt lat="46.432" lon="6.09803">
        <ele>1505.9</ele>
        <time>2024-02-04T11:27:09Z</time>
      </trkpt>
      <trkpt lat="46.43193" lon="6.09812">
        <ele>1507.8</ele>
        <time>2024-02-04T11:27:26Z</time>
      </trkpt>
      <trkpt lat="46.43187" lon="6.09822">
        <ele>1509.6</ele>
        <time>2024-02-04T11:27:36Z</time>
      </trkpt>
      <trkpt lat="46.4318" lon="6.09831">
        <ele>1511.7</ele>
        <time>2024-02-04T11:27:54Z</time>
      </trkpt>
      <trkpt lat="46.43179" lon="6.09844">
        <ele>1513.2</ele>
        <time>2024-02-04T11:28:16Z</time>
      </trkpt>
      <trkpt lat="46.43177" lon="6.09858">
        <ele>1514.8</ele>
        <time>2024-02-04T11:28:33Z</time>
      </trkpt>
      <trkpt lat="46.43172" lon="6.09868">
        <ele>1516.6</ele>
        <time>2024-02-04T11:28:46Z</time>
      </trkpt>
      <trkpt lat="46.43169" lon="6.09882">
        <ele>1518.1</ele>
        <time>2024-02-04T11:28:58Z</time>
      </trkpt>
      <trkpt lat="46.43164" lon="6.09894">
        <ele>1519.7</ele>
        <time>2024-02-04T11:29:10Z</time>
      </trkpt>
      <trkpt lat="46.43161" lon="6.09906">
        <ele>1521</ele>
        <time>2024-02-04T11:29:21Z</time>
      </trkpt>
      <trkpt lat="46.43158" lon="6.09919">
        <ele>1522.9</ele>
        <time>2024-02-04T11:29:35Z</time>
      </trkpt>
      <trkpt lat="46.43156" lon="6.09933">
        <ele>1526.1</ele>
        <time>2024-02-04T11:29:49Z</time>
      </trkpt>
      <trkpt lat="46.43151" lon="6.09943">
        <ele>1528.9</ele>
        <time>2024-02-04T11:30:05Z</time>
      </trkpt>
      <trkpt lat="46.43146" lon="6.09955">
        <ele>1531.7</ele>
        <time>2024-02-04T11:30:20Z</time>
      </trkpt>
      <trkpt lat="46.43145" lon="6.09968">
        <ele>1534.8</ele>
        <time>2024-02-04T11:30:37Z</time>
      </trkpt>
      <trkpt lat="46.43146" lon="6.09982">
        <ele>1537.7</ele>
        <time>2024-02-04T11:30:56Z</time>
      </trkpt>
      <trkpt lat="46.43147" lon="6.09995">
        <ele>1540.2</ele>
        <time>2024-02-04T11:31:11Z</time>
      </trkpt>
      <trkpt lat="46.43148" lon="6.10009">
        <ele>1543.4</ele>
        <time>2024-02-04T11:31:28Z</time>
      </trkpt>
      <trkpt lat="46.43153" lon="6.1002">
        <ele>1546.3</ele>
        <time>2024-02-04T11:31:45Z</time>
      </trkpt>
      <trkpt lat="46.43152" lon="6.10034">
        <ele>1549.5</ele>
        <time>2024-02-04T11:32:03Z</time>
      </trkpt>
      <trkpt lat="46.43146" lon="6.10044">
        <ele>1552.4</ele>
        <time>2024-02-04T11:32:16Z</time>
      </trkpt>
      <trkpt lat="46.43138" lon="6.10049">
        <ele>1554.2</ele>
        <time>2024-02-04T11:32:31Z</time>
      </trkpt>
      <trkpt lat="46.43129" lon="6.10054">
        <ele>1555.9</ele>
        <time>2024-02-04T11:32:47Z</time>
      </trkpt>
      <trkpt lat="46.43121" lon="6.10062">
        <ele>1558.6</ele>
        <time>2024-02-04T11:33:03Z</time>
      </trkpt>
      <trkpt lat="46.43113" lon="6.10066">
        <ele>1560.3</ele>
        <time>2024-02-04T11:33:16Z</time>
      </trkpt>
      <trkpt lat="46.43104" lon="6.1007">
        <ele>1562.3</ele>
        <time>2024-02-04T11:33:29Z</time>
      </trkpt>
      <trkpt lat="46.43095" lon="6.10075">
        <ele>1564.8</ele>
        <time>2024-02-04T11:33:46Z</time>
      </trkpt>
      <trkpt lat="46.43085" lon="6.10075">
        <ele>1565.7</ele>
        <time>2024-02-04T11:34:01Z</time>
      </trkpt>
      <trkpt lat="46.43075" lon="6.10072">
        <ele>1566.5</ele>
        <time>2024-02-04T11:34:14Z</time>
      </trkpt>
      <trkpt lat="46.43066" lon="6.10074">
        <ele>1569.1</ele>
        <time>2024-02-04T11:34:28Z</time>
      </trkpt>
      <trkpt lat="46.43057" lon="6.10078">
        <ele>1572.1</ele>
        <time>2024-02-04T11:34:41Z</time>
      </trkpt>
      <trkpt lat="46.43048" lon="6.10081">
        <ele>1574.6</ele>
        <time>2024-02-04T11:34:55Z</time>
      </trkpt>
      <trkpt lat="46.43038" lon="6.1008">
        <ele>1576.1</ele>
        <time>2024-02-04T11:35:12Z</time>
      </trkpt>
      <trkpt lat="46.43029" lon="6.10083">
        <ele>1578.6</ele>
        <time>2024-02-04T11:35:26Z</time>
      </trkpt>
      <trkpt lat="46.43021" lon="6.10089">
        <ele>1581.5</ele>
        <time>2024-02-04T11:35:42Z</time>
      </trkpt>
      <trkpt lat="46.43018" lon="6.10102">
        <ele>1585.2</ele>
        <time>2024-02-04T11:36:04Z</time>
      </trkpt>
      <trkpt lat="46.4301" lon="6.10096">
        <ele>1585.1</ele>
        <time>2024-02-04T11:36:20Z</time>
      </trkpt>
      <trkpt lat="46.43002" lon="6.10092">
        <ele>1585.2</ele>
        <time>2024-02-04T11:38:58Z</time>
      </trkpt>
      <trkpt lat="46.42993" lon="6.10084">
        <ele>1584.7</ele>
        <time>2024-02-04T11:39:10Z</time>
      </trkpt>
      <trkpt lat="46.42984" lon="6.10084">
        <ele>1586.5</ele>
        <time>2024-02-04T11:39:20Z</time>
      </trkpt>
      <trkpt lat="46.42975" lon="6.10083">
        <ele>1588.4</ele>
        <time>2024-02-04T11:39:31Z</time>
      </trkpt>
      <trkpt lat="46.42966" lon="6.10083">
        <ele>1591.1</ele>
        <time>2024-02-04T11:39:42Z</time>
      </trkpt>
      <trkpt lat="46.42957" lon="6.10082">
        <ele>1593.7</ele>
        <time>2024-02-04T11:39:56Z</time>
      </trkpt>
      <trkpt lat="46.42948" lon="6.10078">
        <ele>1595.8</ele>
        <time>2024-02-04T11:40:08Z</time>
      </trkpt>
      <trkpt lat="46.42939" lon="6.10076">
        <ele>1598.5</ele>
        <time>2024-02-04T11:40:22Z</time>
      </trkpt>
      <trkpt lat="46.42931" lon="6.1007">
        <ele>1599.9</ele>
        <time>2024-02-04T11:40:37Z</time>
      </trkpt>
      <trkpt lat="46.42922" lon="6.10063">
        <ele>1601.1</ele>
        <time>2024-02-04T11:40:55Z</time>
      </trkpt>
      <trkpt lat="46.42914" lon="6.1006">
        <ele>1603.3</ele>
        <time>2024-02-04T11:41:32Z</time>
      </trkpt>
      <trkpt lat="46.42905" lon="6.10057">
        <ele>1605.6</ele>
        <time>2024-02-04T11:41:48Z</time>
      </trkpt>
      <trkpt lat="46.42895" lon="6.10057">
        <ele>1609.2</ele>
        <time>2024-02-04T11:42:03Z</time>
      </trkpt>
      <trkpt lat="46.42887" lon="6.1005">
        <ele>1610.3</ele>
        <time>2024-02-04T11:42:33Z</time>
      </trkpt>
      <trkpt lat="46.42878" lon="6.10051">
        <ele>1613.1</ele>
        <time>2024-02-04T11:43:33Z</time>
      </trkpt>
      <trkpt lat="46.42868" lon="6.10049">
        <ele>1615.5</ele>
        <time>2024-02-04T11:43:44Z</time>
      </trkpt>
      <trkpt lat="46.42859" lon="6.10044">
        <ele>1616.6</ele>
        <time>2024-02-04T11:43:57Z</time>
      </trkpt>
      <trkpt lat="46.4285" lon="6.10043">
        <ele>1618.7</ele>
        <time>2024-02-04T11:44:37Z</time>
      </trkpt>
      <trkpt lat="46.42841" lon="6.10039">
        <ele>1619.9</ele>
        <time>2024-02-04T11:45:02Z</time>
      </trkpt>
      <trkpt lat="46.42832" lon="6.10036">
        <ele>1621.5</ele>
        <time>2024-02-04T11:45:20Z</time>
      </trkpt>
      <trkpt lat="46.42823" lon="6.10033">
        <ele>1623.4</ele>
        <time>2024-02-04T11:45:39Z</time>
      </trkpt>
      <trkpt lat="46.42814" lon="6.10031">
        <ele>1625.6</ele>
        <time>2024-02-04T11:46:00Z</time>
      </trkpt>
      <trkpt lat="46.42805" lon="6.10031">
        <ele>1628.1</ele>
        <time>2024-02-04T11:46:15Z</time>
      </trkpt>
      <trkpt lat="46.42796" lon="6.10037">
        <ele>1631.4</ele>
        <time>2024-02-04T11:46:30Z</time>
      </trkpt>
      <trkpt lat="46.42787" lon="6.10033">
        <ele>1632.4</ele>
        <time>2024-02-04T11:46:57Z</time>
      </trkpt>
      <trkpt lat="46.42778" lon="6.1003">
        <ele>1633.5</ele>
        <time>2024-02-04T11:47:15Z</time>
      </trkpt>
      <trkpt lat="46.42773" lon="6.10018">
        <ele>1632.8</ele>
        <time>2024-02-04T11:47:30Z</time>
      </trkpt>
      <trkpt lat="46.42764" lon="6.10018">
        <ele>1634.9</ele>
        <time>2024-02-04T11:47:42Z</time>
      </trkpt>
      <trkpt lat="46.42755" lon="6.10016">
        <ele>1636.8</ele>
        <time>2024-02-04T11:47:57Z</time>
      </trkpt>
      <trkpt lat="46.42746" lon="6.10012">
        <ele>1638.2</ele>
        <time>2024-02-04T11:48:09Z</time>
      </trkpt>
      <trkpt lat="46.42737" lon="6.10006">
        <ele>1638.6</ele>
        <time>2024-02-04T11:48:21Z</time>
      </trkpt>
      <trkpt lat="46.4273" lon="6.09998">
        <ele>1638.3</ele>
        <time>2024-02-04T11:48:32Z</time>
      </trkpt>
      <trkpt lat="46.4272" lon="6.09995">
        <ele>1639.6</ele>
        <time>2024-02-04T11:48:45Z</time>
      </trkpt>
      <trkpt lat="46.42711" lon="6.09989">
        <ele>1640.5</ele>
        <time>2024-02-04T11:48:56Z</time>
      </trkpt>
      <trkpt lat="46.42703" lon="6.09984">
        <ele>1641.1</ele>
        <time>2024-02-04T11:49:06Z</time>
      </trkpt>
      <trkpt lat="46.42694" lon="6.09979">
        <ele>1641.9</ele>
        <time>2024-02-04T11:49:17Z</time>
      </trkpt>
      <trkpt lat="46.42685" lon="6.09973">
        <ele>1642.7</ele>
        <time>2024-02-04T11:49:32Z</time>
      </trkpt>
      <trkpt lat="46.42676" lon="6.09967">
        <ele>1643.7</ele>
        <time>2024-02-04T11:49:47Z</time>
      </trkpt>
      <trkpt lat="46.42667" lon="6.09968">
        <ele>1646.2</ele>
        <time>2024-02-04T11:49:58Z</time>
      </trkpt>
      <trkpt lat="46.42658" lon="6.09964">
        <ele>1647.8</ele>
        <time>2024-02-04T11:50:12Z</time>
      </trkpt>
      <trkpt lat="46.42648" lon="6.09962">
        <ele>1650.1</ele>
        <time>2024-02-04T11:50:26Z</time>
      </trkpt>
      <trkpt lat="46.42639" lon="6.09966">
        <ele>1653.1</ele>
        <time>2024-02-04T11:50:38Z</time>
      </trkpt>
      <trkpt lat="46.4263" lon="6.09968">
        <ele>1655.7</ele>
        <time>2024-02-04T11:50:52Z</time>
      </trkpt>
      <trkpt lat="46.42621" lon="6.09966">
        <ele>1657.7</ele>
        <time>2024-02-04T11:51:07Z</time>
      </trkpt>
      <trkpt lat="46.42611" lon="6.09965">
        <ele>1659.9</ele>
        <time>2024-02-04T11:51:21Z</time>
      </trkpt>
      <trkpt lat="46.42602" lon="6.09963">
        <ele>1661.8</ele>
        <time>2024-02-04T11:51:37Z</time>
      </trkpt>
      <trkpt lat="46.42593" lon="6.09962">
        <ele>1664</ele>
        <time>2024-02-04T11:51:55Z</time>
      </trkpt>
      <trkpt lat="46.426" lon="6.09972">
        <ele>1663.9</ele>
        <time>2024-02-04T11:52:15Z</time>
      </trkpt>
      <trkpt lat="46.42606" lon="6.09982">
        <ele>1664.4</ele>
        <time>2024-02-04T11:52:28Z</time>
      </trkpt>
      <trkpt lat="46.42612" lon="6.09992">
        <ele>1665.8</ele>
        <time>2024-02-04T11:52:42Z</time>
      </trkpt>
      <trkpt lat="46.42608" lon="6.10004">
        <ele>1668.3</ele>
        <time>2024-02-04T11:53:01Z</time>
      </trkpt>
      <trkpt lat="46.42606" lon="6.10018">
        <ele>1668.4</ele>
        <time>2024-02-04T11:53:12Z</time>
      </trkpt>
      <trkpt lat="46.42603" lon="6.10031">
        <ele>1668.5</ele>
        <time>2024-02-04T11:53:23Z</time>
      </trkpt>
      <trkpt lat="46.42594" lon="6.10037">
        <ele>1668.7</ele>
        <time>2024-02-04T11:53:33Z</time>
      </trkpt>
      <trkpt lat="46.42592" lon="6.1005">
        <ele>1668</ele>
        <time>2024-02-04T11:53:52Z</time>
      </trkpt>
      <trkpt lat="46.426" lon="6.10057">
        <ele>1666.9</ele>
        <time>2024-02-04T11:55:57Z</time>
      </trkpt>
      <trkpt lat="46.42608" lon="6.10065">
        <ele>1665.3</ele>
        <time>2024-02-04T11:56:09Z</time>
      </trkpt>
      <trkpt lat="46.426" lon="6.10071">
        <ele>1662.3</ele>
        <time>2024-02-04T12:33:14Z</time>
      </trkpt>
      <trkpt lat="46.42609" lon="6.10072">
        <ele>1664.2</ele>
        <time>2024-02-04T12:36:35Z</time>
      </trkpt>
      <trkpt lat="46.42614" lon="6.1006">
        <ele>1666.1</ele>
        <time>2024-02-04T12:39:55Z</time>
      </trkpt>
      <trkpt lat="46.42623" lon="6.10063">
        <ele>1665.3</ele>
        <time>2024-02-04T12:40:07Z</time>
      </trkpt>
      <trkpt lat="46.42632" lon="6.10067">
        <ele>1664.5</ele>
        <time>2024-02-04T12:40:18Z</time>
      </trkpt>
      <trkpt lat="46.42641" lon="6.10068">
        <ele>1664</ele>
        <time>2024-02-04T12:40:30Z</time>
      </trkpt>
      <trkpt lat="46.4265" lon="6.10073">
        <ele>1663.1</ele>
        <time>2024-02-04T12:40:41Z</time>
      </trkpt>
      <trkpt lat="46.42659" lon="6.10076">
        <ele>1662.4</ele>
        <time>2024-02-04T12:40:52Z</time>
      </trkpt>
      <trkpt lat="46.42668" lon="6.10081">
        <ele>1661.8</ele>
        <time>2024-02-04T12:41:05Z</time>
      </trkpt>
      <trkpt lat="46.42675" lon="6.10089">
        <ele>1661.1</ele>
        <time>2024-02-04T12:41:16Z</time>
      </trkpt>
      <trkpt lat="46.42683" lon="6.10096">
        <ele>1660.6</ele>
        <time>2024-02-04T12:41:28Z</time>
      </trkpt>
      <trkpt lat="46.42692" lon="6.10103">
        <ele>1660.5</ele>
        <time>2024-02-04T12:41:40Z</time>
      </trkpt>
      <trkpt lat="46.42701" lon="6.10106">
        <ele>1660.2</ele>
        <time>2024-02-04T12:41:50Z</time>
      </trkpt>
      <trkpt lat="46.42709" lon="6.10113">
        <ele>1660</ele>
        <time>2024-02-04T12:42:01Z</time>
      </trkpt>
      <trkpt lat="46.42718" lon="6.10115">
        <ele>1659.4</ele>
        <time>2024-02-04T12:42:12Z</time>
      </trkpt>
      <trkpt lat="46.42727" lon="6.1012">
        <ele>1659</ele>
        <time>2024-02-04T12:42:23Z</time>
      </trkpt>
      <trkpt lat="46.42735" lon="6.10125">
        <ele>1658.6</ele>
        <time>2024-02-04T12:42:34Z</time>
      </trkpt>
      <trkpt lat="46.42743" lon="6.10132">
        <ele>1658.3</ele>
        <time>2024-02-04T12:42:49Z</time>
      </trkpt>
      <trkpt lat="46.42751" lon="6.10138">
        <ele>1658</ele>
        <time>2024-02-04T12:43:00Z</time>
      </trkpt>
      <trkpt lat="46.42757" lon="6.10149">
        <ele>1658.8</ele>
        <time>2024-02-04T12:43:12Z</time>
      </trkpt>
      <trkpt lat="46.42762" lon="6.1016">
        <ele>1659.9</ele>
        <time>2024-02-04T12:43:27Z</time>
      </trkpt>
      <trkpt lat="46.4277" lon="6.10166">
        <ele>1660.7</ele>
        <time>2024-02-04T12:43:52Z</time>
      </trkpt>
      <trkpt lat="46.42778" lon="6.10173">
        <ele>1660.1</ele>
        <time>2024-02-04T12:44:04Z</time>
      </trkpt>
      <trkpt lat="46.42787" lon="6.10178">
        <ele>1659.3</ele>
        <time>2024-02-04T12:44:18Z</time>
      </trkpt>
      <trkpt lat="46.42796" lon="6.1018">
        <ele>1659.4</ele>
        <time>2024-02-04T12:44:29Z</time>
      </trkpt>
      <trkpt lat="46.42805" lon="6.10183">
        <ele>1659.6</ele>
        <time>2024-02-04T12:44:40Z</time>
      </trkpt>
      <trkpt lat="46.42814" lon="6.10179">
        <ele>1658.2</ele>
        <time>2024-02-04T12:45:56Z</time>
      </trkpt>
      <trkpt lat="46.42824" lon="6.10179">
        <ele>1656.8</ele>
        <time>2024-02-04T12:46:09Z</time>
      </trkpt>
      <trkpt lat="46.42833" lon="6.10182">
        <ele>1655.6</ele>
        <time>2024-02-04T12:46:23Z</time>
      </trkpt>
      <trkpt lat="46.42843" lon="6.10181">
        <ele>1653.5</ele>
        <time>2024-02-04T12:46:37Z</time>
      </trkpt>
      <trkpt lat="46.42852" lon="6.10182">
        <ele>1651.6</ele>
        <time>2024-02-04T12:47:02Z</time>
      </trkpt>
      <trkpt lat="46.42861" lon="6.10183">
        <ele>1649.8</ele>
        <time>2024-02-04T12:47:20Z</time>
      </trkpt>
      <trkpt lat="46.4287" lon="6.10186">
        <ele>1648.5</ele>
        <time>2024-02-04T12:47:33Z</time>
      </trkpt>
      <trkpt lat="46.42879" lon="6.1019">
        <ele>1647.3</ele>
        <time>2024-02-04T12:47:47Z</time>
      </trkpt>
      <trkpt lat="46.42889" lon="6.10193">
        <ele>1645.8</ele>
        <time>2024-02-04T12:48:00Z</time>
      </trkpt>
      <trkpt lat="46.42898" lon="6.10193">
        <ele>1644.2</ele>
        <time>2024-02-04T12:48:12Z</time>
      </trkpt>
      <trkpt lat="46.42908" lon="6.10197">
        <ele>1642.2</ele>
        <time>2024-02-04T12:48:26Z</time>
      </trkpt>
      <trkpt lat="46.42917" lon="6.10199">
        <ele>1640.3</ele>
        <time>2024-02-04T12:48:39Z</time>
      </trkpt>
      <trkpt lat="46.42925" lon="6.10204">
        <ele>1638.1</ele>
        <time>2024-02-04T12:48:52Z</time>
      </trkpt>
      <trkpt lat="46.42934" lon="6.10209">
        <ele>1636.2</ele>
        <time>2024-02-04T12:49:09Z</time>
      </trkpt>
      <trkpt lat="46.42943" lon="6.10213">
        <ele>1634.6</ele>
        <time>2024-02-04T12:49:27Z</time>
      </trkpt>
      <trkpt lat="46.42952" lon="6.10218">
        <ele>1632.7</ele>
        <time>2024-02-04T12:49:38Z</time>
      </trkpt>
      <trkpt lat="46.42961" lon="6.10217">
        <ele>1630.9</ele>
        <time>2024-02-04T12:49:49Z</time>
      </trkpt>
      <trkpt lat="46.4297" lon="6.1022">
        <ele>1629.2</ele>
        <time>2024-02-04T12:50:01Z</time>
      </trkpt>
      <trkpt lat="46.4298" lon="6.10223">
        <ele>1627.7</ele>
        <time>2024-02-04T12:50:14Z</time>
      </trkpt>
      <trkpt lat="46.42988" lon="6.10226">
        <ele>1625.7</ele>
        <time>2024-02-04T12:50:24Z</time>
      </trkpt>
      <trkpt lat="46.42998" lon="6.10229">
        <ele>1623.8</ele>
        <time>2024-02-04T12:50:35Z</time>
      </trkpt>
      <trkpt lat="46.43007" lon="6.10233">
        <ele>1621.7</ele>
        <time>2024-02-04T12:50:51Z</time>
      </trkpt>
      <trkpt lat="46.43016" lon="6.10236">
        <ele>1619.7</ele>
        <time>2024-02-04T12:51:05Z</time>
      </trkpt>
      <trkpt lat="46.43026" lon="6.10235">
        <ele>1618.8</ele>
        <time>2024-02-04T12:51:20Z</time>
      </trkpt>
      <trkpt lat="46.43034" lon="6.1024">
        <ele>1617.2</ele>
        <time>2024-02-04T12:51:32Z</time>
      </trkpt>
      <trkpt lat="46.43044" lon="6.10239">
        <ele>1615.9</ele>
        <time>2024-02-04T12:51:46Z</time>
      </trkpt>
      <trkpt lat="46.43052" lon="6.10245">
        <ele>1615</ele>
        <time>2024-02-04T12:52:13Z</time>
      </trkpt>
      <trkpt lat="46.43061" lon="6.1025">
        <ele>1613.8</ele>
        <time>2024-02-04T12:52:30Z</time>
      </trkpt>
      <trkpt lat="46.43069" lon="6.10246">
        <ele>1611.7</ele>
        <time>2024-02-04T12:52:43Z</time>
      </trkpt>
      <trkpt lat="46.43077" lon="6.10239">
        <ele>1609.3</ele>
        <time>2024-02-04T12:52:56Z</time>
      </trkpt>
      <trkpt lat="46.43087" lon="6.10239">
        <ele>1607</ele>
        <time>2024-02-04T12:53:21Z</time>
      </trkpt>
      <trkpt lat="46.43096" lon="6.10244">
        <ele>1605.7</ele>
        <time>2024-02-04T12:53:32Z</time>
      </trkpt>
      <trkpt lat="46.43104" lon="6.10248">
        <ele>1604.7</ele>
        <time>2024-02-04T12:54:09Z</time>
      </trkpt>
      <trkpt lat="46.43113" lon="6.10245">
        <ele>1602</ele>
        <time>2024-02-04T12:54:33Z</time>
      </trkpt>
      <trkpt lat="46.43122" lon="6.10249">
        <ele>1599.5</ele>
        <time>2024-02-04T12:54:50Z</time>
      </trkpt>
      <trkpt lat="46.4313" lon="6.10256">
        <ele>1595.8</ele>
        <time>2024-02-04T12:55:04Z</time>
      </trkpt>
      <trkpt lat="46.43139" lon="6.10261">
        <ele>1593.4</ele>
        <time>2024-02-04T12:55:19Z</time>
      </trkpt>
      <trkpt lat="46.43148" lon="6.10265">
        <ele>1590.4</ele>
        <time>2024-02-04T12:55:35Z</time>
      </trkpt>
      <trkpt lat="46.43155" lon="6.10255">
        <ele>1587.6</ele>
        <time>2024-02-04T12:55:54Z</time>
      </trkpt>
      <trkpt lat="46.43164" lon="6.10253">
        <ele>1584.3</ele>
        <time>2024-02-04T12:56:12Z</time>
      </trkpt>
      <trkpt lat="46.43168" lon="6.10264">
        <ele>1583.5</ele>
        <time>2024-02-04T12:56:21Z</time>
      </trkpt>
      <trkpt lat="46.43176" lon="6.10272">
        <ele>1581.8</ele>
        <time>2024-02-04T12:56:32Z</time>
      </trkpt>
      <trkpt lat="46.43183" lon="6.10281">
        <ele>1579.8</ele>
        <time>2024-02-04T12:56:46Z</time>
      </trkpt>
      <trkpt lat="46.43188" lon="6.10292">
        <ele>1577.5</ele>
        <time>2024-02-04T12:56:59Z</time>
      </trkpt>
      <trkpt lat="46.43194" lon="6.10304">
        <ele>1577</ele>
        <time>2024-02-04T12:57:18Z</time>
      </trkpt>
      <trkpt lat="46.43193" lon="6.1029">
        <ele>1577.2</ele>
        <time>2024-02-04T12:58:15Z</time>
      </trkpt>
      <trkpt lat="46.43198" lon="6.10278">
        <ele>1575.5</ele>
        <time>2024-02-04T12:58:31Z</time>
      </trkpt>
      <trkpt lat="46.43201" lon="6.10266">
        <ele>1572.4</ele>
        <time>2024-02-04T12:58:59Z</time>
      </trkpt>
      <trkpt lat="46.43206" lon="6.10254">
        <ele>1569.1</ele>
        <time>2024-02-04T12:59:29Z</time>
      </trkpt>
      <trkpt lat="46.43206" lon="6.1024">
        <ele>1567.7</ele>
        <time>2024-02-04T13:01:49Z</time>
      </trkpt>
      <trkpt lat="46.432" lon="6.10229">
        <ele>1568.2</ele>
        <time>2024-02-04T13:02:02Z</time>
      </trkpt>
      <trkpt lat="46.43202" lon="6.10216">
        <ele>1565.7</ele>
        <time>2024-02-04T13:02:30Z</time>
      </trkpt>
      <trkpt lat="46.43204" lon="6.10203">
        <ele>1562.7</ele>
        <time>2024-02-04T13:02:55Z</time>
      </trkpt>
      <trkpt lat="46.43211" lon="6.10194">
        <ele>1558.6</ele>
        <time>2024-02-04T13:03:26Z</time>
      </trkpt>
      <trkpt lat="46.43219" lon="6.10188">
        <ele>1555.4</ele>
        <time>2024-02-04T13:03:40Z</time>
      </trkpt>
      <trkpt lat="46.43227" lon="6.10196">
        <ele>1553.8</ele>
        <time>2024-02-04T13:05:44Z</time>
      </trkpt>
      <trkpt lat="46.43219" lon="6.10189">
        <ele>1555.7</ele>
        <time>2024-02-04T13:06:04Z</time>
      </trkpt>
      <trkpt lat="46.43222" lon="6.10177">
        <ele>1553.1</ele>
        <time>2024-02-04T13:06:21Z</time>
      </trkpt>
      <trkpt lat="46.43229" lon="6.10167">
        <ele>1549.8</ele>
        <time>2024-02-04T13:07:15Z</time>
      </trkpt>
      <trkpt lat="46.43238" lon="6.10169">
        <ele>1546.9</ele>
        <time>2024-02-04T13:07:27Z</time>
      </trkpt>
      <trkpt lat="46.43247" lon="6.10171">
        <ele>1544.2</ele>
        <time>2024-02-04T13:07:43Z</time>
      </trkpt>
      <trkpt lat="46.43249" lon="6.10158">
        <ele>1541.7</ele>
        <time>2024-02-04T13:07:59Z</time>
      </trkpt>
      <trkpt lat="46.43258" lon="6.10153">
        <ele>1538</ele>
        <time>2024-02-04T13:08:13Z</time>
      </trkpt>
      <trkpt lat="46.43263" lon="6.10143">
        <ele>1534.7</ele>
        <time>2024-02-04T13:09:00Z</time>
      </trkpt>
      <trkpt lat="46.43268" lon="6.1013">
        <ele>1532.3</ele>
        <time>2024-02-04T13:09:22Z</time>
      </trkpt>
      <trkpt lat="46.43268" lon="6.10117">
        <ele>1531.3</ele>
        <time>2024-02-04T13:09:42Z</time>
      </trkpt>
      <trkpt lat="46.4327" lon="6.10104">
        <ele>1528.8</ele>
        <time>2024-02-04T13:11:33Z</time>
      </trkpt>
      <trkpt lat="46.43275" lon="6.10093">
        <ele>1525</ele>
        <time>2024-02-04T13:11:57Z</time>
      </trkpt>
      <trkpt lat="46.43277" lon="6.1008">
        <ele>1521.8</ele>
        <time>2024-02-04T13:12:22Z</time>
      </trkpt>
      <trkpt lat="46.43272" lon="6.10068">
        <ele>1521.5</ele>
        <time>2024-02-04T13:12:38Z</time>
      </trkpt>
      <trkpt lat="46.43274" lon="6.10055">
        <ele>1518.3</ele>
        <time>2024-02-04T13:12:53Z</time>
      </trkpt>
      <trkpt lat="46.43278" lon="6.10043">
        <ele>1515.1</ele>
        <time>2024-02-04T13:13:07Z</time>
      </trkpt>
      <trkpt lat="46.43286" lon="6.10035">
        <ele>1512.4</ele>
        <time>2024-02-04T13:13:59Z</time>
      </trkpt>
      <trkpt lat="46.43292" lon="6.10023">
        <ele>1509.3</ele>
        <time>2024-02-04T13:14:10Z</time>
      </trkpt>
      <trkpt lat="46.43299" lon="6.10015">
        <ele>1506.2</ele>
        <time>2024-02-04T13:14:23Z</time>
      </trkpt>
      <trkpt lat="46.43307" lon="6.10008">
        <ele>1503</ele>
        <time>2024-02-04T13:14:39Z</time>
      </trkpt>
      <trkpt lat="46.43315" lon="6.10001">
        <ele>1499.7</ele>
        <time>2024-02-04T13:14:51Z</time>
      </trkpt>
      <trkpt lat="46.43321" lon="6.09991">
        <ele>1497.8</ele>
        <time>2024-02-04T13:14:59Z</time>
      </trkpt>
      <trkpt lat="46.43329" lon="6.09982">
        <ele>1495.5</ele>
        <time>2024-02-04T13:15:10Z</time>
      </trkpt>
      <trkpt lat="46.43335" lon="6.09992">
        <ele>1494.2</ele>
        <time>2024-02-04T13:16:23Z</time>
      </trkpt>
      <trkpt lat="46.43343" lon="6.09999">
        <ele>1492.3</ele>
        <time>2024-02-04T13:17:13Z</time>
      </trkpt>
      <trkpt lat="46.43352" lon="6.1">
        <ele>1489.6</ele>
        <time>2024-02-04T13:17:33Z</time>
      </trkpt>
      <trkpt lat="46.43361" lon="6.09996">
        <ele>1486.7</ele>
        <time>2024-02-04T13:17:47Z</time>
      </trkpt>
      <trkpt lat="46.4337" lon="6.1">
        <ele>1485.4</ele>
        <time>2024-02-04T13:17:58Z</time>
      </trkpt>
      <trkpt lat="46.43377" lon="6.09992">
        <ele>1483.5</ele>
        <time>2024-02-04T13:18:11Z</time>
      </trkpt>
      <trkpt lat="46.43382" lon="6.0998">
        <ele>1482.2</ele>
        <time>2024-02-04T13:18:22Z</time>
      </trkpt>
      <trkpt lat="46.43387" lon="6.09968">
        <ele>1480.5</ele>
        <time>2024-02-04T13:18:33Z</time>
      </trkpt>
      <trkpt lat="46.43391" lon="6.09956">
        <ele>1477.7</ele>
        <time>2024-02-04T13:18:44Z</time>
      </trkpt>
      <trkpt lat="46.43393" lon="6.09943">
        <ele>1475</ele>
        <time>2024-02-04T13:18:55Z</time>
      </trkpt>
      <trkpt lat="46.43398" lon="6.09932">
        <ele>1472.7</ele>
        <time>2024-02-04T13:19:03Z</time>
      </trkpt>
      <trkpt lat="46.43404" lon="6.09922">
        <ele>1470.5</ele>
        <time>2024-02-04T13:19:14Z</time>
      </trkpt>
      <trkpt lat="46.43408" lon="6.09909">
        <ele>1468.5</ele>
        <time>2024-02-04T13:19:25Z</time>
      </trkpt>
      <trkpt lat="46.43413" lon="6.09898">
        <ele>1466.6</ele>
        <time>2024-02-04T13:19:33Z</time>
      </trkpt>
      <trkpt lat="46.43421" lon="6.0989">
        <ele>1464.8</ele>
        <time>2024-02-04T13:19:43Z</time>
      </trkpt>
      <trkpt lat="46.43429" lon="6.09883">
        <ele>1463.5</ele>
        <time>2024-02-04T13:19:54Z</time>
      </trkpt>
      <trkpt lat="46.43437" lon="6.09874">
        <ele>1461.7</ele>
        <time>2024-02-04T13:20:04Z</time>
      </trkpt>
      <trkpt lat="46.43446" lon="6.09871">
        <ele>1460.3</ele>
        <time>2024-02-04T13:21:15Z</time>
      </trkpt>
      <trkpt lat="46.43453" lon="6.09862">
        <ele>1458.5</ele>
        <time>2024-02-04T13:21:24Z</time>
      </trkpt>
      <trkpt lat="46.43461" lon="6.09855">
        <ele>1456.9</ele>
        <time>2024-02-04T13:21:34Z</time>
      </trkpt>
      <trkpt lat="46.43469" lon="6.09847">
        <ele>1454.8</ele>
        <time>2024-02-04T13:21:45Z</time>
      </trkpt>
      <trkpt lat="46.43477" lon="6.0984">
        <ele>1452.8</ele>
        <time>2024-02-04T13:21:55Z</time>
      </trkpt>
      <trkpt lat="46.43485" lon="6.09834">
        <ele>1451.1</ele>
        <time>2024-02-04T13:22:04Z</time>
      </trkpt>
      <trkpt lat="46.43493" lon="6.09826">
        <ele>1449.5</ele>
        <time>2024-02-04T13:22:13Z</time>
      </trkpt>
      <trkpt lat="46.43501" lon="6.0982">
        <ele>1448</ele>
        <time>2024-02-04T13:22:23Z</time>
      </trkpt>
      <trkpt lat="46.43508" lon="6.09812">
        <ele>1447</ele>
        <time>2024-02-04T13:22:32Z</time>
      </trkpt>
      <trkpt lat="46.43517" lon="6.09806">
        <ele>1446.7</ele>
        <time>2024-02-04T13:22:42Z</time>
      </trkpt>
      <trkpt lat="46.43526" lon="6.098">
        <ele>1446.3</ele>
        <time>2024-02-04T13:22:53Z</time>
      </trkpt>
      <trkpt lat="46.43533" lon="6.09791">
        <ele>1445.4</ele>
        <time>2024-02-04T13:23:02Z</time>
      </trkpt>
      <trkpt lat="46.43542" lon="6.09785">
        <ele>1444.7</ele>
        <time>2024-02-04T13:23:11Z</time>
      </trkpt>
      <trkpt lat="46.43548" lon="6.09776">
        <ele>1443.8</ele>
        <time>2024-02-04T13:23:19Z</time>
      </trkpt>
      <trkpt lat="46.43554" lon="6.09766">
        <ele>1443.1</ele>
        <time>2024-02-04T13:23:27Z</time>
      </trkpt>
      <trkpt lat="46.43562" lon="6.09757">
        <ele>1443.1</ele>
        <time>2024-02-04T13:23:37Z</time>
      </trkpt>
      <trkpt lat="46.4357" lon="6.09751">
        <ele>1443.7</ele>
        <time>2024-02-04T13:23:47Z</time>
      </trkpt>
      <trkpt lat="46.43578" lon="6.09743">
        <ele>1443.7</ele>
        <time>2024-02-04T13:23:57Z</time>
      </trkpt>
      <trkpt lat="46.43587" lon="6.09736">
        <ele>1443.1</ele>
        <time>2024-02-04T13:24:07Z</time>
      </trkpt>
      <trkpt lat="46.43594" lon="6.09728">
        <ele>1441.5</ele>
        <time>2024-02-04T13:24:17Z</time>
      </trkpt>
      <trkpt lat="46.43599" lon="6.09717">
        <ele>1439.5</ele>
        <time>2024-02-04T13:24:28Z</time>
      </trkpt>
      <trkpt lat="46.43604" lon="6.09704">
        <ele>1437.2</ele>
        <time>2024-02-04T13:24:38Z</time>
      </trkpt>
      <trkpt lat="46.43611" lon="6.09696">
        <ele>1435.3</ele>
        <time>2024-02-04T13:24:50Z</time>
      </trkpt>
      <trkpt lat="46.4362" lon="6.09691">
        <ele>1432.9</ele>
        <time>2024-02-04T13:25:03Z</time>
      </trkpt>
      <trkpt lat="46.43628" lon="6.09682">
        <ele>1430.4</ele>
        <time>2024-02-04T13:25:15Z</time>
      </trkpt>
      <trkpt lat="46.43635" lon="6.09673">
        <ele>1428.3</ele>
        <time>2024-02-04T13:25:24Z</time>
      </trkpt>
      <trkpt lat="46.43644" lon="6.09667">
        <ele>1426.7</ele>
        <time>2024-02-04T13:25:33Z</time>
      </trkpt>
      <trkpt lat="46.43653" lon="6.09662">
        <ele>1425.4</ele>
        <time>2024-02-04T13:25:43Z</time>
      </trkpt>
      <trkpt lat="46.43661" lon="6.09655">
        <ele>1424.1</ele>
        <time>2024-02-04T13:25:51Z</time>
      </trkpt>
      <trkpt lat="46.43668" lon="6.09647">
        <ele>1422.3</ele>
        <time>2024-02-04T13:26:01Z</time>
      </trkpt>
      <trkpt lat="46.43669" lon="6.09633">
        <ele>1420.2</ele>
        <time>2024-02-04T13:26:29Z</time>
      </trkpt>
      <trkpt lat="46.43676" lon="6.09624">
        <ele>1416.2</ele>
        <time>2024-02-04T13:26:51Z</time>
      </trkpt>
      <trkpt lat="46.43684" lon="6.09616">
        <ele>1412.3</ele>
        <time>2024-02-04T13:27:14Z</time>
      </trkpt>
      <trkpt lat="46.4369" lon="6.09606">
        <ele>1408.6</ele>
        <time>2024-02-04T13:27:41Z</time>
      </trkpt>
      <trkpt lat="46.43698" lon="6.09599">
        <ele>1405.4</ele>
        <time>2024-02-04T13:27:55Z</time>
      </trkpt>
      <trkpt lat="46.43704" lon="6.0959">
        <ele>1402.9</ele>
        <time>2024-02-04T13:28:12Z</time>
      </trkpt>
      <trkpt lat="46.43712" lon="6.09581">
        <ele>1400.6</ele>
        <time>2024-02-04T13:29:18Z</time>
      </trkpt>
      <trkpt lat="46.43719" lon="6.09574">
        <ele>1398.2</ele>
        <time>2024-02-04T13:29:44Z</time>
      </trkpt>
      <trkpt lat="46.43726" lon="6.09565">
        <ele>1395.1</ele>
        <time>2024-02-04T13:30:07Z</time>
      </trkpt>
      <trkpt lat="46.43734" lon="6.09559">
        <ele>1391.5</ele>
        <time>2024-02-04T13:30:22Z</time>
      </trkpt>
      <trkpt lat="46.43741" lon="6.0955">
        <ele>1388.6</ele>
        <time>2024-02-04T13:30:48Z</time>
      </trkpt>
      <trkpt lat="46.43748" lon="6.09541">
        <ele>1386.1</ele>
        <time>2024-02-04T13:31:04Z</time>
      </trkpt>
      <trkpt lat="46.43756" lon="6.09536">
        <ele>1382.9</ele>
        <time>2024-02-04T13:31:31Z</time>
      </trkpt>
      <trkpt lat="46.43763" lon="6.09526">
        <ele>1379.7</ele>
        <time>2024-02-04T13:31:52Z</time>
      </trkpt>
      <trkpt lat="46.43771" lon="6.0952">
        <ele>1376</ele>
        <time>2024-02-04T13:32:09Z</time>
      </trkpt>
      <trkpt lat="46.43779" lon="6.09513">
        <ele>1372.9</ele>
        <time>2024-02-04T13:32:24Z</time>
      </trkpt>
      <trkpt lat="46.43787" lon="6.09506">
        <ele>1372</ele>
        <time>2024-02-04T13:32:36Z</time>
      </trkpt>
      <trkpt lat="46.43794" lon="6.09497">
        <ele>1371.1</ele>
        <time>2024-02-04T13:32:54Z</time>
      </trkpt>
      <trkpt lat="46.43802" lon="6.09489">
        <ele>1369.9</ele>
        <time>2024-02-04T13:33:12Z</time>
      </trkpt>
      <trkpt lat="46.4381" lon="6.09482">
        <ele>1368.3</ele>
        <time>2024-02-04T13:33:23Z</time>
      </trkpt>
      <trkpt lat="46.43815" lon="6.09471">
        <ele>1366.8</ele>
        <time>2024-02-04T13:33:32Z</time>
      </trkpt>
      <trkpt lat="46.43823" lon="6.09464">
        <ele>1364.8</ele>
        <time>2024-02-04T13:33:42Z</time>
      </trkpt>
      <trkpt lat="46.43832" lon="6.09461">
        <ele>1363.1</ele>
        <time>2024-02-04T13:33:57Z</time>
      </trkpt>
      <trkpt lat="46.4384" lon="6.09455">
        <ele>1359.7</ele>
        <time>2024-02-04T13:34:30Z</time>
      </trkpt>
      <trkpt lat="46.43848" lon="6.09445">
        <ele>1356.4</ele>
        <time>2024-02-04T13:34:44Z</time>
      </trkpt>
      <trkpt lat="46.43856" lon="6.0944">
        <ele>1353.6</ele>
        <time>2024-02-04T13:34:56Z</time>
      </trkpt>
      <trkpt lat="46.43862" lon="6.0943">
        <ele>1350.7</ele>
        <time>2024-02-04T13:35:08Z</time>
      </trkpt>
      <trkpt lat="46.43869" lon="6.09422">
        <ele>1347.3</ele>
        <time>2024-02-04T13:35:17Z</time>
      </trkpt>
      <trkpt lat="46.43876" lon="6.09412">
        <ele>1344.3</ele>
        <time>2024-02-04T13:35:29Z</time>
      </trkpt>
      <trkpt lat="46.43883" lon="6.09405">
        <ele>1341.3</ele>
        <time>2024-02-04T13:36:16Z</time>
      </trkpt>
      <trkpt lat="46.43891" lon="6.09398">
        <ele>1338.4</ele>
        <time>2024-02-04T13:36:30Z</time>
      </trkpt>
      <trkpt lat="46.43899" lon="6.09389">
        <ele>1335.9</ele>
        <time>2024-02-04T13:36:44Z</time>
      </trkpt>
      <trkpt lat="46.43905" lon="6.09379">
        <ele>1333.6</ele>
        <time>2024-02-04T13:36:56Z</time>
      </trkpt>
      <trkpt lat="46.43914" lon="6.09376">
        <ele>1331.3</ele>
        <time>2024-02-04T13:37:41Z</time>
      </trkpt>
      <trkpt lat="46.43922" lon="6.09367">
        <ele>1328.4</ele>
        <time>2024-02-04T13:37:52Z</time>
      </trkpt>
      <trkpt lat="46.43929" lon="6.09359">
        <ele>1325.6</ele>
        <time>2024-02-04T13:38:04Z</time>
      </trkpt>
      <trkpt lat="46.43937" lon="6.09352">
        <ele>1322.3</ele>
        <time>2024-02-04T13:38:16Z</time>
      </trkpt>
      <trkpt lat="46.43944" lon="6.09341">
        <ele>1319.4</ele>
        <time>2024-02-04T13:38:29Z</time>
      </trkpt>
      <trkpt lat="46.43949" lon="6.09331">
        <ele>1317.7</ele>
        <time>2024-02-04T13:38:38Z</time>
      </trkpt>
      <trkpt lat="46.43951" lon="6.09318">
        <ele>1316.5</ele>
        <time>2024-02-04T13:38:48Z</time>
      </trkpt>
      <trkpt lat="46.43956" lon="6.09307">
        <ele>1315.3</ele>
        <time>2024-02-04T13:39:02Z</time>
      </trkpt>
      <trkpt lat="46.43954" lon="6.09294">
        <ele>1313.5</ele>
        <time>2024-02-04T13:39:16Z</time>
      </trkpt>
      <trkpt lat="46.4395" lon="6.09282">
        <ele>1312</ele>
        <time>2024-02-04T13:39:31Z</time>
      </trkpt>
      <trkpt lat="46.43945" lon="6.09292">
        <ele>1314.1</ele>
        <time>2024-02-04T13:40:48Z</time>
      </trkpt>
      <trkpt lat="46.43953" lon="6.09296">
        <ele>1313.9</ele>
        <time>2024-02-04T13:40:59Z</time>
      </trkpt>
      <trkpt lat="46.43962" lon="6.09291">
        <ele>1312.2</ele>
        <time>2024-02-04T13:41:53Z</time>
      </trkpt>
      <trkpt lat="46.4397" lon="6.09283">
        <ele>1310.2</ele>
        <time>2024-02-04T13:42:08Z</time>
      </trkpt>
      <trkpt lat="46.43978" lon="6.09275">
        <ele>1307.6</ele>
        <time>2024-02-04T13:42:22Z</time>
      </trkpt>
      <trkpt lat="46.43986" lon="6.09271">
        <ele>1305.1</ele>
        <time>2024-02-04T13:42:33Z</time>
      </trkpt>
      <trkpt lat="46.43996" lon="6.09274">
        <ele>1304</ele>
        <time>2024-02-04T13:42:42Z</time>
      </trkpt>
      <trkpt lat="46.44003" lon="6.09266">
        <ele>1301</ele>
        <time>2024-02-04T13:42:50Z</time>
      </trkpt>
      <trkpt lat="46.44009" lon="6.09255">
        <ele>1297.7</ele>
        <time>2024-02-04T13:42:58Z</time>
      </trkpt>
      <trkpt lat="46.44015" lon="6.09244">
        <ele>1294.5</ele>
        <time>2024-02-04T13:43:06Z</time>
      </trkpt>
      <trkpt lat="46.4402" lon="6.09232">
        <ele>1292.4</ele>
        <time>2024-02-04T13:43:17Z</time>
      </trkpt>
      <trkpt lat="46.44025" lon="6.0922">
        <ele>1290.4</ele>
        <time>2024-02-04T13:43:28Z</time>
      </trkpt>
      <trkpt lat="46.44029" lon="6.09209">
        <ele>1289.4</ele>
        <time>2024-02-04T13:43:36Z</time>
      </trkpt>
      <trkpt lat="46.44035" lon="6.09199">
        <ele>1288.6</ele>
        <time>2024-02-04T13:43:50Z</time>
      </trkpt>
      <trkpt lat="46.44044" lon="6.09199">
        <ele>1288</ele>
        <time>2024-02-04T13:44:01Z</time>
      </trkpt>
      <trkpt lat="46.44054" lon="6.09202">
        <ele>1287.4</ele>
        <time>2024-02-04T13:47:52Z</time>
      </trkpt>
      <trkpt lat="46.44062" lon="6.09196">
        <ele>1286.1</ele>
        <time>2024-02-04T13:48:04Z</time>
      </trkpt>
      <trkpt lat="46.44071" lon="6.09189">
        <ele>1284.6</ele>
        <time>2024-02-04T13:48:13Z</time>
      </trkpt>
      <trkpt lat="46.4408" lon="6.09184">
        <ele>1283.1</ele>
        <time>2024-02-04T13:48:24Z</time>
      </trkpt>
      <trkpt lat="46.44085" lon="6.09173">
        <ele>1282</ele>
        <time>2024-02-04T13:48:33Z</time>
      </trkpt>
      <trkpt lat="46.44094" lon="6.09167">
        <ele>1280.9</ele>
        <time>2024-02-04T13:48:43Z</time>
      </trkpt>
      <trkpt lat="46.44103" lon="6.09163">
        <ele>1279.6</ele>
        <time>2024-02-04T13:48:53Z</time>
      </trkpt>
      <trkpt lat="46.44112" lon="6.09161">
        <ele>1278.3</ele>
        <time>2024-02-04T13:49:03Z</time>
      </trkpt>
      <trkpt lat="46.44121" lon="6.09161">
        <ele>1276.7</ele>
        <time>2024-02-04T13:49:12Z</time>
      </trkpt>
      <trkpt lat="46.4413" lon="6.09156">
        <ele>1274.5</ele>
        <time>2024-02-04T13:49:23Z</time>
      </trkpt>
      <trkpt lat="46.44136" lon="6.09146">
        <ele>1272.3</ele>
        <time>2024-02-04T13:49:32Z</time>
      </trkpt>
      <trkpt lat="46.44145" lon="6.09146">
        <ele>1270.9</ele>
        <time>2024-02-04T13:49:42Z</time>
      </trkpt>
      <trkpt lat="46.44154" lon="6.09144">
        <ele>1269.3</ele>
        <time>2024-02-04T13:49:51Z</time>
      </trkpt>
      <trkpt lat="46.44162" lon="6.09136">
        <ele>1267.5</ele>
        <time>2024-02-04T13:49:59Z</time>
      </trkpt>
      <trkpt lat="46.4417" lon="6.09128">
        <ele>1265.9</ele>
        <time>2024-02-04T13:50:08Z</time>
      </trkpt>
      <trkpt lat="46.44178" lon="6.09121">
        <ele>1264.7</ele>
        <time>2024-02-04T13:50:18Z</time>
      </trkpt>
      <trkpt lat="46.44186" lon="6.09111">
        <ele>1263.6</ele>
        <time>2024-02-04T13:50:27Z</time>
      </trkpt>
      <trkpt lat="46.44193" lon="6.09102">
        <ele>1262.8</ele>
        <time>2024-02-04T13:50:37Z</time>
      </trkpt>
      <trkpt lat="46.44197" lon="6.0909">
        <ele>1262</ele>
        <time>2024-02-04T13:50:45Z</time>
      </trkpt>
      <trkpt lat="46.44204" lon="6.09081">
        <ele>1260.6</ele>
        <time>2024-02-04T13:50:53Z</time>
      </trkpt>
      <trkpt lat="46.44212" lon="6.09073">
        <ele>1258.4</ele>
        <time>2024-02-04T13:51:02Z</time>
      </trkpt>
      <trkpt lat="46.4422" lon="6.09064">
        <ele>1256.5</ele>
        <time>2024-02-04T13:51:12Z</time>
      </trkpt>
      <trkpt lat="46.44228" lon="6.09058">
        <ele>1254.9</ele>
        <time>2024-02-04T13:51:22Z</time>
      </trkpt>
      <trkpt lat="46.44236" lon="6.09049">
        <ele>1253.8</ele>
        <time>2024-02-04T13:51:35Z</time>
      </trkpt>
      <trkpt lat="46.44238" lon="6.09036">
        <ele>1253.2</ele>
        <time>2024-02-04T13:51:42Z</time>
      </trkpt>
      <trkpt lat="46.4424" lon="6.09022">
        <ele>1252.7</ele>
        <time>2024-02-04T13:51:49Z</time>
      </trkpt>
      <trkpt lat="46.44246" lon="6.09012">
        <ele>1252.3</ele>
        <time>2024-02-04T13:52:04Z</time>
      </trkpt>
      <trkpt lat="46.44253" lon="6.09001">
        <ele>1252</ele>
        <time>2024-02-04T13:52:14Z</time>
      </trkpt>
      <trkpt lat="46.44258" lon="6.0899">
        <ele>1252.3</ele>
        <time>2024-02-04T13:52:33Z</time>
      </trkpt>
      <trkpt lat="46.44262" lon="6.08978">
        <ele>1252.4</ele>
        <time>2024-02-04T13:52:41Z</time>
      </trkpt>
      <trkpt lat="46.44267" lon="6.08965">
        <ele>1252.2</ele>
        <time>2024-02-04T13:52:49Z</time>
      </trkpt>
      <trkpt lat="46.44273" lon="6.08954">
        <ele>1251.6</ele>
        <time>2024-02-04T13:52:58Z</time>
      </trkpt>
      <trkpt lat="46.44279" lon="6.08944">
        <ele>1250.9</ele>
        <time>2024-02-04T13:53:06Z</time>
      </trkpt>
      <trkpt lat="46.44284" lon="6.08932">
        <ele>1251.1</ele>
        <time>2024-02-04T13:53:15Z</time>
      </trkpt>
      <trkpt lat="46.4429" lon="6.0892">
        <ele>1250.7</ele>
        <time>2024-02-04T13:53:24Z</time>
      </trkpt>
      <trkpt lat="46.44298" lon="6.08913">
        <ele>1249.3</ele>
        <time>2024-02-04T13:53:33Z</time>
      </trkpt>
      <trkpt lat="46.44303" lon="6.08902">
        <ele>1247.9</ele>
        <time>2024-02-04T13:53:42Z</time>
      </trkpt>
      <trkpt lat="46.44307" lon="6.08888">
        <ele>1246.9</ele>
        <time>2024-02-04T13:53:52Z</time>
      </trkpt>
      <trkpt lat="46.44311" lon="6.08875">
        <ele>1246</ele>
        <time>2024-02-04T13:54:01Z</time>
      </trkpt>
      <trkpt lat="46.44316" lon="6.08864">
        <ele>1245.3</ele>
        <time>2024-02-04T13:54:11Z</time>
      </trkpt>
      <trkpt lat="46.44321" lon="6.08851">
        <ele>1245.1</ele>
        <time>2024-02-04T13:54:20Z</time>
      </trkpt>
      <trkpt lat="46.44326" lon="6.08841">
        <ele>1244.7</ele>
        <time>2024-02-04T13:54:28Z</time>
      </trkpt>
      <trkpt lat="46.44332" lon="6.0883">
        <ele>1244.3</ele>
        <time>2024-02-04T13:54:37Z</time>
      </trkpt>
      <trkpt lat="46.44339" lon="6.08821">
        <ele>1243.6</ele>
        <time>2024-02-04T13:54:44Z</time>
      </trkpt>
      <trkpt lat="46.44345" lon="6.08811">
        <ele>1242.5</ele>
        <time>2024-02-04T13:54:53Z</time>
      </trkpt>
      <trkpt lat="46.4435" lon="6.088">
        <ele>1241.2</ele>
        <time>2024-02-04T13:55:01Z</time>
      </trkpt>
      <trkpt lat="46.44356" lon="6.08789">
        <ele>1239.1</ele>
        <time>2024-02-04T13:55:09Z</time>
      </trkpt>
      <trkpt lat="46.44365" lon="6.08784">
        <ele>1237.1</ele>
        <time>2024-02-04T13:55:16Z</time>
      </trkpt>
      <trkpt lat="46.44374" lon="6.08783">
        <ele>1236.1</ele>
        <time>2024-02-04T13:55:23Z</time>
      </trkpt>
      <trkpt lat="46.44384" lon="6.08782">
        <ele>1234.9</ele>
        <time>2024-02-04T13:55:33Z</time>
      </trkpt>
      <trkpt lat="46.44394" lon="6.08778">
        <ele>1233.7</ele>
        <time>2024-02-04T13:55:42Z</time>
      </trkpt>
      <trkpt lat="46.44403" lon="6.08778">
        <ele>1233.1</ele>
        <time>2024-02-04T13:55:49Z</time>
      </trkpt>
      <trkpt lat="46.44412" lon="6.08783">
        <ele>1233.1</ele>
        <time>2024-02-04T13:55:57Z</time>
      </trkpt>
      <trkpt lat="46.44421" lon="6.08787">
        <ele>1233.2</ele>
        <time>2024-02-04T13:56:05Z</time>
      </trkpt>
      <trkpt lat="46.4443" lon="6.08793">
        <ele>1233.7</ele>
        <time>2024-02-04T13:56:14Z</time>
      </trkpt>
      <trkpt lat="46.44438" lon="6.088">
        <ele>1234.4</ele>
        <time>2024-02-04T13:56:22Z</time>
      </trkpt>
      <trkpt lat="46.44446" lon="6.08808">
        <ele>1235</ele>
        <time>2024-02-04T13:56:32Z</time>
      </trkpt>
      <trkpt lat="46.44454" lon="6.08817">
        <ele>1235.2</ele>
        <time>2024-02-04T13:56:41Z</time>
      </trkpt>
      <trkpt lat="46.44464" lon="6.08821">
        <ele>1235.4</ele>
        <time>2024-02-04T13:56:49Z</time>
      </trkpt>
      <trkpt lat="46.44473" lon="6.08823">
        <ele>1235.5</ele>
        <time>2024-02-04T13:56:57Z</time>
      </trkpt>
      <trkpt lat="46.44482" lon="6.08818">
        <ele>1235</ele>
        <time>2024-02-04T13:57:10Z</time>
      </trkpt>
      <trkpt lat="46.44492" lon="6.08818">
        <ele>1235.3</ele>
        <time>2024-02-04T13:57:21Z</time>
      </trkpt>
      <trkpt lat="46.445" lon="6.08825">
        <ele>1235.7</ele>
        <time>2024-02-04T13:57:30Z</time>
      </trkpt>
      <trkpt lat="46.44507" lon="6.08835">
        <ele>1236</ele>
        <time>2024-02-04T13:57:39Z</time>
      </trkpt>
      <trkpt lat="46.44513" lon="6.08846">
        <ele>1236.2</ele>
        <time>2024-02-04T13:57:47Z</time>
      </trkpt>
      <trkpt lat="46.44519" lon="6.08856">
        <ele>1236.3</ele>
        <time>2024-02-04T13:57:55Z</time>
      </trkpt>
      <trkpt lat="46.44524" lon="6.08867">
        <ele>1236.2</ele>
        <time>2024-02-04T13:58:04Z</time>
      </trkpt>
      <trkpt lat="46.44529" lon="6.08879">
        <ele>1236</ele>
        <time>2024-02-04T13:58:13Z</time>
      </trkpt>
      <trkpt lat="46.44534" lon="6.08892">
        <ele>1236</ele>
        <time>2024-02-04T13:58:22Z</time>
      </trkpt>
      <trkpt lat="46.44538" lon="6.08904">
        <ele>1236</ele>
        <time>2024-02-04T13:58:30Z</time>
      </trkpt>
      <trkpt lat="46.44542" lon="6.08916">
        <ele>1236</ele>
        <time>2024-02-04T13:58:38Z</time>
      </trkpt>
      <trkpt lat="46.44547" lon="6.08928">
        <ele>1236.3</ele>
        <time>2024-02-04T13:58:46Z</time>
      </trkpt>
      <trkpt lat="46.4455" lon="6.08941">
        <ele>1236.7</ele>
        <time>2024-02-04T13:58:54Z</time>
      </trkpt>
      <trkpt lat="46.44553" lon="6.08955">
        <ele>1236.9</ele>
        <time>2024-02-04T13:59:02Z</time>
      </trkpt>
      <trkpt lat="46.44556" lon="6.08968">
        <ele>1237.1</ele>
        <time>2024-02-04T13:59:10Z</time>
      </trkpt>
      <trkpt lat="46.44561" lon="6.0898">
        <ele>1237.1</ele>
        <time>2024-02-04T13:59:18Z</time>
      </trkpt>
      <trkpt lat="46.44567" lon="6.08991">
        <ele>1237.4</ele>
        <time>2024-02-04T13:59:26Z</time>
      </trkpt>
      <trkpt lat="46.44574" lon="6.09">
        <ele>1237.9</ele>
        <time>2024-02-04T13:59:34Z</time>
      </trkpt>
      <trkpt lat="46.44581" lon="6.0901">
        <ele>1238.4</ele>
        <time>2024-02-04T13:59:42Z</time>
      </trkpt>
      <trkpt lat="46.44588" lon="6.0902">
        <ele>1238.6</ele>
        <time>2024-02-04T13:59:50Z</time>
      </trkpt>
      <trkpt lat="46.44595" lon="6.09028">
        <ele>1238.9</ele>
        <time>2024-02-04T13:59:57Z</time>
      </trkpt>
      <trkpt lat="46.44602" lon="6.09037">
        <ele>1239.1</ele>
        <time>2024-02-04T14:00:05Z</time>
      </trkpt>
      <trkpt lat="46.44608" lon="6.09047">
        <ele>1238.7</ele>
        <time>2024-02-04T14:00:13Z</time>
      </trkpt>
      <trkpt lat="46.44616" lon="6.09055">
        <ele>1238.4</ele>
        <time>2024-02-04T14:00:21Z</time>
      </trkpt>
      <trkpt lat="46.44624" lon="6.09062">
        <ele>1239.2</ele>
        <time>2024-02-04T14:00:29Z</time>
      </trkpt>
      <trkpt lat="46.44632" lon="6.09071">
        <ele>1239.8</ele>
        <time>2024-02-04T14:00:38Z</time>
      </trkpt>
      <trkpt lat="46.4464" lon="6.0908">
        <ele>1240</ele>
        <time>2024-02-04T14:00:47Z</time>
      </trkpt>
      <trkpt lat="46.44649" lon="6.09085">
        <ele>1240</ele>
        <time>2024-02-04T14:00:56Z</time>
      </trkpt>
      <trkpt lat="46.44657" lon="6.09092">
        <ele>1240</ele>
        <time>2024-02-04T14:01:04Z</time>
      </trkpt>
      <trkpt lat="46.44665" lon="6.09102">
        <ele>1240</ele>
        <time>2024-02-04T14:01:12Z</time>
      </trkpt>
      <trkpt lat="46.4467" lon="6.09113">
        <ele>1239.7</ele>
        <time>2024-02-04T14:01:19Z</time>
      </trkpt>
      <trkpt lat="46.44674" lon="6.09126">
        <ele>1239.1</ele>
        <time>2024-02-04T14:01:28Z</time>
      </trkpt>
      <trkpt lat="46.44678" lon="6.09138">
        <ele>1238.6</ele>
        <time>2024-02-04T14:01:36Z</time>
      </trkpt>
      <trkpt lat="46.44683" lon="6.0915">
        <ele>1238.2</ele>
        <time>2024-02-04T14:01:44Z</time>
      </trkpt>
      <trkpt lat="46.44688" lon="6.09161">
        <ele>1237.6</ele>
        <time>2024-02-04T14:01:53Z</time>
      </trkpt>
      <trkpt lat="46.44693" lon="6.09173">
        <ele>1237.1</ele>
        <time>2024-02-04T14:02:01Z</time>
      </trkpt>
      <trkpt lat="46.44698" lon="6.09185">
        <ele>1236.9</ele>
        <time>2024-02-04T14:02:09Z</time>
      </trkpt>
      <trkpt lat="46.44703" lon="6.09197">
        <ele>1237</ele>
        <time>2024-02-04T14:02:17Z</time>
      </trkpt>
      <trkpt lat="46.44706" lon="6.0921">
        <ele>1236.8</ele>
        <time>2024-02-04T14:02:25Z</time>
      </trkpt>
      <trkpt lat="46.44709" lon="6.09223">
        <ele>1236.5</ele>
        <time>2024-02-04T14:02:33Z</time>
      </trkpt>
      <trkpt lat="46.44714" lon="6.09234">
        <ele>1236</ele>
        <time>2024-02-04T14:02:41Z</time>
      </trkpt>
      <trkpt lat="46.44719" lon="6.09246">
        <ele>1235.4</ele>
        <time>2024-02-04T14:02:49Z</time>
      </trkpt>
      <trkpt lat="46.44724" lon="6.09258">
        <ele>1234.7</ele>
        <time>2024-02-04T14:02:58Z</time>
      </trkpt>
      <trkpt lat="46.44727" lon="6.09271">
        <ele>1234.2</ele>
        <time>2024-02-04T14:03:07Z</time>
      </trkpt>
      <trkpt lat="46.44724" lon="6.09258">
        <ele>1234.8</ele>
        <time>2024-02-04T14:03:49Z</time>
      </trkpt>
      <trkpt lat="46.44723" lon="6.09244">
        <ele>1235.2</ele>
        <time>2024-02-04T14:03:58Z</time>
      </trkpt>
      <trkpt lat="46.44722" lon="6.09231">
        <ele>1235.7</ele>
        <time>2024-02-04T14:04:08Z</time>
      </trkpt>
      <trkpt lat="46.44721" lon="6.09218">
        <ele>1236.2</ele>
        <time>2024-02-04T14:04:19Z</time>
      </trkpt>
      <trkpt lat="46.44717" lon="6.09206">
        <ele>1236.7</ele>
        <time>2024-02-04T14:04:31Z</time>
      </trkpt>
      <trkpt lat="46.44721" lon="6.09193">
        <ele>1236.9</ele>
        <time>2024-02-04T14:06:23Z</time>
      </trkpt>
      <trkpt lat="46.44723" lon="6.09179">
        <ele>1235.8</ele>
        <time>2024-02-04T14:06:36Z</time>
      </trkpt>
      <trkpt lat="46.44723" lon="6.09165">
        <ele>1235</ele>
        <time>2024-02-04T14:06:44Z</time>
      </trkpt>
      <trkpt lat="46.44723" lon="6.09151">
        <ele>1234.9</ele>
        <time>2024-02-04T14:06:52Z</time>
      </trkpt>
      <trkpt lat="46.44727" lon="6.09139">
        <ele>1234.7</ele>
        <time>2024-02-04T14:07:00Z</time>
      </trkpt>
      <trkpt lat="46.44733" lon="6.09128">
        <ele>1234.5</ele>
        <time>2024-02-04T14:07:08Z</time>
      </trkpt>
      <trkpt lat="46.44737" lon="6.09117">
        <ele>1234.3</ele>
        <time>2024-02-04T14:07:16Z</time>
      </trkpt>
      <trkpt lat="46.44741" lon="6.09104">
        <ele>1234</ele>
        <time>2024-02-04T14:07:25Z</time>
      </trkpt>
      <trkpt lat="46.44741" lon="6.09089">
        <ele>1234.2</ele>
        <time>2024-02-04T14:07:33Z</time>
      </trkpt>
      <trkpt lat="46.4474" lon="6.09076">
        <ele>1234.4</ele>
        <time>2024-02-04T14:07:40Z</time>
      </trkpt>
      <trkpt lat="46.44739" lon="6.09062">
        <ele>1234.6</ele>
        <time>2024-02-04T14:07:48Z</time>
      </trkpt>
      <trkpt lat="46.44738" lon="6.09048">
        <ele>1234.6</ele>
        <time>2024-02-04T14:07:57Z</time>
      </trkpt>
      <trkpt lat="46.44735" lon="6.09036">
        <ele>1234.8</ele>
        <time>2024-02-04T14:08:03Z</time>
      </trkpt>
      <trkpt lat="46.44736" lon="6.09022">
        <ele>1234.3</ele>
        <time>2024-02-04T14:08:11Z</time>
      </trkpt>
      <trkpt lat="46.44739" lon="6.09008">
        <ele>1233.5</ele>
        <time>2024-02-04T14:08:19Z</time>
      </trkpt>
      <trkpt lat="46.44741" lon="6.08994">
        <ele>1232.7</ele>
        <time>2024-02-04T14:08:26Z</time>
      </trkpt>
      <trkpt lat="46.4474" lon="6.0898">
        <ele>1232.1</ele>
        <time>2024-02-04T14:08:34Z</time>
      </trkpt>
      <trkpt lat="46.44741" lon="6.08967">
        <ele>1231.4</ele>
        <time>2024-02-04T14:08:42Z</time>
      </trkpt>
      <trkpt lat="46.44743" lon="6.08954">
        <ele>1230.6</ele>
        <time>2024-02-04T14:08:50Z</time>
      </trkpt>
      <trkpt lat="46.44742" lon="6.08939">
        <ele>1230.2</ele>
        <time>2024-02-04T14:08:58Z</time>
      </trkpt>
      <trkpt lat="46.44742" lon="6.08926">
        <ele>1229.9</ele>
        <time>2024-02-04T14:09:05Z</time>
      </trkpt>
      <trkpt lat="46.44743" lon="6.08911">
        <ele>1229.4</ele>
        <time>2024-02-04T14:09:13Z</time>
      </trkpt>
      <trkpt lat="46.44743" lon="6.08897">
        <ele>1228.8</ele>
        <time>2024-02-04T14:09:21Z</time>
      </trkpt>
      <trkpt lat="46.44745" lon="6.08884">
        <ele>1227.9</ele>
        <time>2024-02-04T14:09:29Z</time>
      </trkpt>
      <trkpt lat="46.44747" lon="6.08871">
        <ele>1227</ele>
        <time>2024-02-04T14:09:36Z</time>
      </trkpt>
      <trkpt lat="46.44746" lon="6.08857">
        <ele>1226.6</ele>
        <time>2024-02-04T14:09:44Z</time>
      </trkpt>
      <trkpt lat="46.44743" lon="6.08843">
        <ele>1226.1</ele>
        <time>2024-02-04T14:09:52Z</time>
      </trkpt>
      <trkpt lat="46.44737" lon="6.08832">
        <ele>1226.3</ele>
        <time>2024-02-04T14:09:59Z</time>
      </trkpt>
      <trkpt lat="46.44733" lon="6.0882">
        <ele>1227.1</ele>
        <time>2024-02-04T14:10:07Z</time>
      </trkpt>
      <trkpt lat="46.44731" lon="6.08806">
        <ele>1227.7</ele>
        <time>2024-02-04T14:10:16Z</time>
      </trkpt>
      <trkpt lat="46.44731" lon="6.08793">
        <ele>1227.2</ele>
        <time>2024-02-04T14:10:24Z</time>
      </trkpt>
      <trkpt lat="46.44732" lon="6.0878">
        <ele>1226.7</ele>
        <time>2024-02-04T14:10:31Z</time>
      </trkpt>
      <trkpt lat="46.44732" lon="6.08766">
        <ele>1226.9</ele>
        <time>2024-02-04T14:10:40Z</time>
      </trkpt>
      <trkpt lat="46.44732" lon="6.08752">
        <ele>1227.4</ele>
        <time>2024-02-04T14:10:50Z</time>
      </trkpt>
      <trkpt lat="46.44732" lon="6.08738">
        <ele>1228.1</ele>
        <time>2024-02-04T14:10:58Z</time>
      </trkpt>
      <trkpt lat="46.44733" lon="6.08724">
        <ele>1228.6</ele>
        <time>2024-02-04T14:11:06Z</time>
      </trkpt>
      <trkpt lat="46.44732" lon="6.0871">
        <ele>1229.3</ele>
        <time>2024-02-04T14:11:15Z</time>
      </trkpt>
      <trkpt lat="46.44729" lon="6.08697">
        <ele>1230</ele>
        <time>2024-02-04T14:11:23Z</time>
      </trkpt>
      <trkpt lat="46.44726" lon="6.08683">
        <ele>1230.1</ele>
        <time>2024-02-04T14:11:32Z</time>
      </trkpt>
      <trkpt lat="46.44725" lon="6.08669">
        <ele>1230.2</ele>
        <time>2024-02-04T14:11:40Z</time>
      </trkpt>
      <trkpt lat="46.44725" lon="6.08655">
        <ele>1231</ele>
        <time>2024-02-04T14:11:49Z</time>
      </trkpt>
      <trkpt lat="46.44729" lon="6.08642">
        <ele>1231.8</ele>
        <time>2024-02-04T14:11:58Z</time>
      </trkpt>
      <trkpt lat="46.44732" lon="6.08628">
        <ele>1232</ele>
        <time>2024-02-04T14:12:07Z</time>
      </trkpt>
      <trkpt lat="46.44738" lon="6.08616">
        <ele>1231.5</ele>
        <time>2024-02-04T14:12:17Z</time>
      </trkpt>
      <trkpt lat="46.44742" lon="6.08604">
        <ele>1231.1</ele>
        <time>2024-02-04T14:12:25Z</time>
      </trkpt>
      <trkpt lat="46.44749" lon="6.08594">
        <ele>1230.2</ele>
        <time>2024-02-04T14:12:33Z</time>
      </trkpt>
      <trkpt lat="46.44757" lon="6.08587">
        <ele>1229.5</ele>
        <time>2024-02-04T14:12:42Z</time>
      </trkpt>
      <trkpt lat="46.44765" lon="6.08581">
        <ele>1229</ele>
        <time>2024-02-04T14:12:51Z</time>
      </trkpt>
      <trkpt lat="46.44771" lon="6.08571">
        <ele>1229</ele>
        <time>2024-02-04T14:13:18Z</time>
      </trkpt>
      <trkpt lat="46.4478" lon="6.08564">
        <ele>1228.6</ele>
        <time>2024-02-04T14:13:30Z</time>
      </trkpt>
      <trkpt lat="46.44787" lon="6.08555">
        <ele>1228.7</ele>
        <time>2024-02-04T14:13:40Z</time>
      </trkpt>
      <trkpt lat="46.44795" lon="6.08547">
        <ele>1228.8</ele>
        <time>2024-02-04T14:13:48Z</time>
      </trkpt>
      <trkpt lat="46.44803" lon="6.08541">
        <ele>1229.1</ele>
        <time>2024-02-04T14:13:56Z</time>
      </trkpt>
      <trkpt lat="46.44812" lon="6.08536">
        <ele>1229.9</ele>
        <time>2024-02-04T14:14:05Z</time>
      </trkpt>
      <trkpt lat="46.44821" lon="6.08531">
        <ele>1230.9</ele>
        <time>2024-02-04T14:14:16Z</time>
      </trkpt>
      <trkpt lat="46.44831" lon="6.08531">
        <ele>1231.7</ele>
        <time>2024-02-04T14:14:24Z</time>
      </trkpt>
      <trkpt lat="46.44838" lon="6.08522">
        <ele>1232.4</ele>
        <time>2024-02-04T14:14:35Z</time>
      </trkpt>
      <trkpt lat="46.44847" lon="6.08518">
        <ele>1233</ele>
        <time>2024-02-04T14:14:46Z</time>
      </trkpt>
      <trkpt lat="46.44857" lon="6.08513">
        <ele>1233.8</ele>
        <time>2024-02-04T14:14:59Z</time>
      </trkpt>
      <trkpt lat="46.44862" lon="6.08503">
        <ele>1234.9</ele>
        <time>2024-02-04T14:15:11Z</time>
      </trkpt>
      <trkpt lat="46.44872" lon="6.08504">
        <ele>1235.7</ele>
        <time>2024-02-04T14:15:28Z</time>
      </trkpt>
      <trkpt lat="46.44875" lon="6.08517">
        <ele>1235.7</ele>
        <time>2024-02-04T14:15:36Z</time>
      </trkpt>
      <trkpt lat="46.44878" lon="6.0853">
        <ele>1236</ele>
        <time>2024-02-04T14:15:45Z</time>
      </trkpt>
      <trkpt lat="46.44881" lon="6.08543">
        <ele>1236.7</ele>
        <time>2024-02-04T14:15:54Z</time>
      </trkpt>
      <trkpt lat="46.44886" lon="6.08554">
        <ele>1237.6</ele>
        <time>2024-02-04T14:16:05Z</time>
      </trkpt>
      <trkpt lat="46.44895" lon="6.0856">
        <ele>1238.1</ele>
        <time>2024-02-04T14:16:14Z</time>
      </trkpt>
      <trkpt lat="46.44905" lon="6.08563">
        <ele>1238.8</ele>
        <time>2024-02-04T14:16:23Z</time>
      </trkpt>
      <trkpt lat="46.44913" lon="6.0857">
        <ele>1239.6</ele>
        <time>2024-02-04T14:16:32Z</time>
      </trkpt>
      <trkpt lat="46.44919" lon="6.0858">
        <ele>1240.6</ele>
        <time>2024-02-04T14:16:41Z</time>
      </trkpt>
      <trkpt lat="46.44926" lon="6.0859">
        <ele>1241.4</ele>
        <time>2024-02-04T14:16:50Z</time>
      </trkpt>
      <trkpt lat="46.44932" lon="6.08599">
        <ele>1242</ele>
        <time>2024-02-04T14:16:58Z</time>
      </trkpt>
      <trkpt lat="46.44941" lon="6.08606">
        <ele>1242.9</ele>
        <time>2024-02-04T14:17:07Z</time>
      </trkpt>
      <trkpt lat="46.44949" lon="6.08612">
        <ele>1243.4</ele>
        <time>2024-02-04T14:17:14Z</time>
      </trkpt>
      <trkpt lat="46.44958" lon="6.08615">
        <ele>1244.1</ele>
        <time>2024-02-04T14:17:23Z</time>
      </trkpt>
      <trkpt lat="46.44967" lon="6.08618">
        <ele>1245.1</ele>
        <time>2024-02-04T14:17:33Z</time>
      </trkpt>
      <trkpt lat="46.44977" lon="6.08613">
        <ele>1246.5</ele>
        <time>2024-02-04T14:17:55Z</time>
      </trkpt>
      <trkpt lat="46.44983" lon="6.08603">
        <ele>1247.2</ele>
        <time>2024-02-04T14:18:02Z</time>
      </trkpt>
      <trkpt lat="46.44988" lon="6.08591">
        <ele>1247.1</ele>
        <time>2024-02-04T14:18:10Z</time>
      </trkpt>
      <trkpt lat="46.44989" lon="6.08578">
        <ele>1246.3</ele>
        <time>2024-02-04T14:18:17Z</time>
      </trkpt>
      <trkpt lat="46.44992" lon="6.08565">
        <ele>1245.1</ele>
        <time>2024-02-04T14:18:25Z</time>
      </trkpt>
      <trkpt lat="46.44996" lon="6.08553">
        <ele>1244.1</ele>
        <time>2024-02-04T14:18:31Z</time>
      </trkpt>
      <trkpt lat="46.45002" lon="6.08543">
        <ele>1244</ele>
        <time>2024-02-04T14:18:38Z</time>
      </trkpt>
      <trkpt lat="46.45004" lon="6.08529">
        <ele>1244</ele>
        <time>2024-02-04T14:18:46Z</time>
      </trkpt>
      <trkpt lat="46.45008" lon="6.08516">
        <ele>1244</ele>
        <time>2024-02-04T14:18:53Z</time>
      </trkpt>
      <trkpt lat="46.45012" lon="6.08504">
        <ele>1244.7</ele>
        <time>2024-02-04T14:19:00Z</time>
      </trkpt>
      <trkpt lat="46.45016" lon="6.08492">
        <ele>1244.7</ele>
        <time>2024-02-04T14:19:07Z</time>
      </trkpt>
      <trkpt lat="46.45021" lon="6.0848">
        <ele>1244.3</ele>
        <time>2024-02-04T14:19:15Z</time>
      </trkpt>
      <trkpt lat="46.45028" lon="6.0847">
        <ele>1244.7</ele>
        <time>2024-02-04T14:19:22Z</time>
      </trkpt>
      <trkpt lat="46.45034" lon="6.08459">
        <ele>1244.8</ele>
        <time>2024-02-04T14:19:30Z</time>
      </trkpt>
      <trkpt lat="46.45039" lon="6.08447">
        <ele>1244.5</ele>
        <time>2024-02-04T14:19:38Z</time>
      </trkpt>
      <trkpt lat="46.45044" lon="6.08437">
        <ele>1245</ele>
        <time>2024-02-04T14:19:45Z</time>
      </trkpt>
      <trkpt lat="46.4505" lon="6.08424">
        <ele>1244.6</ele>
        <time>2024-02-04T14:19:54Z</time>
      </trkpt>
      <trkpt lat="46.45055" lon="6.08413">
        <ele>1243.9</ele>
        <time>2024-02-04T14:20:02Z</time>
      </trkpt>
      <trkpt lat="46.4506" lon="6.08402">
        <ele>1244.1</ele>
        <time>2024-02-04T14:20:08Z</time>
      </trkpt>
      <trkpt lat="46.45063" lon="6.08388">
        <ele>1243.7</ele>
        <time>2024-02-04T14:20:15Z</time>
      </trkpt>
      <trkpt lat="46.45068" lon="6.08377">
        <ele>1243.7</ele>
        <time>2024-02-04T14:20:23Z</time>
      </trkpt>
      <trkpt lat="46.45074" lon="6.08366">
        <ele>1243.3</ele>
        <time>2024-02-04T14:20:30Z</time>
      </trkpt>
      <trkpt lat="46.4508" lon="6.08356">
        <ele>1242.7</ele>
        <time>2024-02-04T14:20:37Z</time>
      </trkpt>
      <trkpt lat="46.45084" lon="6.08343">
        <ele>1241.9</ele>
        <time>2024-02-04T14:20:46Z</time>
      </trkpt>
      <trkpt lat="46.45089" lon="6.08331">
        <ele>1242.2</ele>
        <time>2024-02-04T14:20:54Z</time>
      </trkpt>
      <trkpt lat="46.45091" lon="6.08316">
        <ele>1242.9</ele>
        <time>2024-02-04T14:21:05Z</time>
      </trkpt>
      <trkpt lat="46.45093" lon="6.08303">
        <ele>1243.3</ele>
        <time>2024-02-04T14:21:14Z</time>
      </trkpt>
      <trkpt lat="46.45098" lon="6.08291">
        <ele>1243.5</ele>
        <time>2024-02-04T14:21:22Z</time>
      </trkpt>
      <trkpt lat="46.45099" lon="6.08278">
        <ele>1243.3</ele>
        <time>2024-02-04T14:21:30Z</time>
      </trkpt>
      <trkpt lat="46.45104" lon="6.08267">
        <ele>1242.8</ele>
        <time>2024-02-04T14:21:38Z</time>
      </trkpt>
      <trkpt lat="46.45108" lon="6.08254">
        <ele>1241.4</ele>
        <time>2024-02-04T14:21:45Z</time>
      </trkpt>
      <trkpt lat="46.45114" lon="6.08243">
        <ele>1241.2</ele>
        <time>2024-02-04T14:21:52Z</time>
      </trkpt>
      <trkpt lat="46.45119" lon="6.08231">
        <ele>1241.2</ele>
        <time>2024-02-04T14:22:00Z</time>
      </trkpt>
      <trkpt lat="46.45125" lon="6.0822">
        <ele>1240.7</ele>
        <time>2024-02-04T14:22:08Z</time>
      </trkpt>
      <trkpt lat="46.45131" lon="6.0821">
        <ele>1241</ele>
        <time>2024-02-04T14:22:15Z</time>
      </trkpt>
      <trkpt lat="46.45139" lon="6.08202">
        <ele>1241.8</ele>
        <time>2024-02-04T14:22:23Z</time>
      </trkpt>
      <trkpt lat="46.45145" lon="6.08193">
        <ele>1241.2</ele>
        <time>2024-02-04T14:22:31Z</time>
      </trkpt>
      <trkpt lat="46.45154" lon="6.08187">
        <ele>1241.7</ele>
        <time>2024-02-04T14:22:37Z</time>
      </trkpt>
      <trkpt lat="46.45162" lon="6.08182">
        <ele>1242.8</ele>
        <time>2024-02-04T14:22:44Z</time>
      </trkpt>
      <trkpt lat="46.4517" lon="6.08176">
        <ele>1243.5</ele>
        <time>2024-02-04T14:22:51Z</time>
      </trkpt>
      <trkpt lat="46.45178" lon="6.0817">
        <ele>1242.9</ele>
        <time>2024-02-04T14:22:59Z</time>
      </trkpt>
      <trkpt lat="46.45187" lon="6.08165">
        <ele>1241.7</ele>
        <time>2024-02-04T14:23:07Z</time>
      </trkpt>
      <trkpt lat="46.45197" lon="6.0816">
        <ele>1241.4</ele>
        <time>2024-02-04T14:23:14Z</time>
      </trkpt>
      <trkpt lat="46.45206" lon="6.08154">
        <ele>1241.5</ele>
        <time>2024-02-04T14:23:22Z</time>
      </trkpt>
      <trkpt lat="46.45215" lon="6.08148">
        <ele>1241</ele>
        <time>2024-02-04T14:23:28Z</time>
      </trkpt>
      <trkpt lat="46.45224" lon="6.08143">
        <ele>1239.9</ele>
        <time>2024-02-04T14:23:34Z</time>
      </trkpt>
      <trkpt lat="46.45233" lon="6.08138">
        <ele>1240.1</ele>
        <time>2024-02-04T14:23:43Z</time>
      </trkpt>
      <trkpt lat="46.45242" lon="6.08131">
        <ele>1240.1</ele>
        <time>2024-02-04T14:23:50Z</time>
      </trkpt>
      <trkpt lat="46.45249" lon="6.08124">
        <ele>1239.2</ele>
        <time>2024-02-04T14:23:57Z</time>
      </trkpt>
      <trkpt lat="46.45257" lon="6.08116">
        <ele>1239</ele>
        <time>2024-02-04T14:24:05Z</time>
      </trkpt>
      <trkpt lat="46.45266" lon="6.0811">
        <ele>1239.3</ele>
        <time>2024-02-04T14:24:11Z</time>
      </trkpt>
      <trkpt lat="46.45274" lon="6.08102">
        <ele>1240</ele>
        <time>2024-02-04T14:24:20Z</time>
      </trkpt>
      <trkpt lat="46.4528" lon="6.08092">
        <ele>1240</ele>
        <time>2024-02-04T14:24:27Z</time>
      </trkpt>
      <trkpt lat="46.45288" lon="6.08082">
        <ele>1240.1</ele>
        <time>2024-02-04T14:24:36Z</time>
      </trkpt>
      <trkpt lat="46.45294" lon="6.08072">
        <ele>1241.2</ele>
        <time>2024-02-04T14:24:44Z</time>
      </trkpt>
      <trkpt lat="46.453" lon="6.08061">
        <ele>1241.4</ele>
        <time>2024-02-04T14:24:50Z</time>
      </trkpt>
      <trkpt lat="46.45307" lon="6.08053">
        <ele>1241.4</ele>
        <time>2024-02-04T14:24:57Z</time>
      </trkpt>
      <trkpt lat="46.45315" lon="6.08048">
        <ele>1241.7</ele>
        <time>2024-02-04T14:25:04Z</time>
      </trkpt>
      <trkpt lat="46.45322" lon="6.08037">
        <ele>1242.5</ele>
        <time>2024-02-04T14:25:12Z</time>
      </trkpt>
      <trkpt lat="46.45331" lon="6.08031">
        <ele>1242.1</ele>
        <time>2024-02-04T14:25:19Z</time>
      </trkpt>
      <trkpt lat="46.45341" lon="6.08029">
        <ele>1240.2</ele>
        <time>2024-02-04T14:25:25Z</time>
      </trkpt>
      <trkpt lat="46.45352" lon="6.08026">
        <ele>1238.3</ele>
        <time>2024-02-04T14:25:38Z</time>
      </trkpt>
      <trkpt lat="46.45361" lon="6.08025">
        <ele>1236.3</ele>
        <time>2024-02-04T14:25:42Z</time>
      </trkpt>
      <trkpt lat="46.45371" lon="6.08022">
        <ele>1235.8</ele>
        <time>2024-02-04T14:25:49Z</time>
      </trkpt>
      <trkpt lat="46.4538" lon="6.08016">
        <ele>1235.3</ele>
        <time>2024-02-04T14:25:56Z</time>
      </trkpt>
      <trkpt lat="46.4539" lon="6.0801">
        <ele>1234.5</ele>
        <time>2024-02-04T14:26:05Z</time>
      </trkpt>
      <trkpt lat="46.45399" lon="6.08006">
        <ele>1233.1</ele>
        <time>2024-02-04T14:26:14Z</time>
      </trkpt>
      <trkpt lat="46.45408" lon="6.08005">
        <ele>1231.4</ele>
        <time>2024-02-04T14:26:22Z</time>
      </trkpt>
      <trkpt lat="46.45418" lon="6.08003">
        <ele>1229.3</ele>
        <time>2024-02-04T14:26:30Z</time>
      </trkpt>
      <trkpt lat="46.45427" lon="6.08">
        <ele>1227.9</ele>
        <time>2024-02-04T14:26:37Z</time>
      </trkpt>
      <trkpt lat="46.45436" lon="6.07994">
        <ele>1226.5</ele>
        <time>2024-02-04T14:26:43Z</time>
      </trkpt>
      <trkpt lat="46.45445" lon="6.07987">
        <ele>1224.6</ele>
        <time>2024-02-04T14:26:50Z</time>
      </trkpt>
      <trkpt lat="46.45453" lon="6.07981">
        <ele>1223.8</ele>
        <time>2024-02-04T14:26:57Z</time>
      </trkpt>
      <trkpt lat="46.45461" lon="6.07973">
        <ele>1222.5</ele>
        <time>2024-02-04T14:27:05Z</time>
      </trkpt>
      <trkpt lat="46.45469" lon="6.07964">
        <ele>1221.4</ele>
        <time>2024-02-04T14:27:14Z</time>
      </trkpt>
      <trkpt lat="46.45479" lon="6.07961">
        <ele>1220</ele>
        <time>2024-02-04T14:27:22Z</time>
      </trkpt>
      <trkpt lat="46.45488" lon="6.07958">
        <ele>1218.4</ele>
        <time>2024-02-04T14:27:31Z</time>
      </trkpt>
      <trkpt lat="46.45497" lon="6.07958">
        <ele>1217.2</ele>
        <time>2024-02-04T14:27:40Z</time>
      </trkpt>
      <trkpt lat="46.45506" lon="6.07962">
        <ele>1216.9</ele>
        <time>2024-02-04T14:27:48Z</time>
      </trkpt>
      <trkpt lat="46.45516" lon="6.07963">
        <ele>1215.7</ele>
        <time>2024-02-04T14:27:56Z</time>
      </trkpt>
      <trkpt lat="46.45525" lon="6.07968">
        <ele>1215.6</ele>
        <time>2024-02-04T14:28:03Z</time>
      </trkpt>
      <trkpt lat="46.45534" lon="6.07973">
        <ele>1215.2</ele>
        <time>2024-02-04T14:28:10Z</time>
      </trkpt>
      <trkpt lat="46.45543" lon="6.07977">
        <ele>1214.7</ele>
        <time>2024-02-04T14:28:17Z</time>
      </trkpt>
      <trkpt lat="46.45552" lon="6.07981">
        <ele>1213.9</ele>
        <time>2024-02-04T14:28:23Z</time>
      </trkpt>
      <trkpt lat="46.45561" lon="6.07985">
        <ele>1214</ele>
        <time>2024-02-04T14:28:30Z</time>
      </trkpt>
      <trkpt lat="46.45571" lon="6.07983">
        <ele>1213.8</ele>
        <time>2024-02-04T14:28:37Z</time>
      </trkpt>
      <trkpt lat="46.4558" lon="6.07979">
        <ele>1213.7</ele>
        <time>2024-02-04T14:28:43Z</time>
      </trkpt>
      <trkpt lat="46.45589" lon="6.07976">
        <ele>1212.8</ele>
        <time>2024-02-04T14:28:51Z</time>
      </trkpt>
      <trkpt lat="46.45598" lon="6.07972">
        <ele>1211.3</ele>
        <time>2024-02-04T14:28:59Z</time>
      </trkpt>
      <trkpt lat="46.45607" lon="6.07967">
        <ele>1209.9</ele>
        <time>2024-02-04T14:29:06Z</time>
      </trkpt>
      <trkpt lat="46.45617" lon="6.07968">
        <ele>1209.4</ele>
        <time>2024-02-04T14:29:14Z</time>
      </trkpt>
      <trkpt lat="46.45627" lon="6.07965">
        <ele>1208.9</ele>
        <time>2024-02-04T14:29:23Z</time>
      </trkpt>
      <trkpt lat="46.45636" lon="6.07969">
        <ele>1209.3</ele>
        <time>2024-02-04T14:29:30Z</time>
      </trkpt>
      <trkpt lat="46.45644" lon="6.07976">
        <ele>1209.1</ele>
        <time>2024-02-04T14:29:37Z</time>
      </trkpt>
      <trkpt lat="46.45649" lon="6.07988">
        <ele>1208.8</ele>
        <time>2024-02-04T14:29:44Z</time>
      </trkpt>
      <trkpt lat="46.45654" lon="6.08">
        <ele>1208.5</ele>
        <time>2024-02-04T14:29:52Z</time>
      </trkpt>
      <trkpt lat="46.45655" lon="6.08015">
        <ele>1208</ele>
        <time>2024-02-04T14:29:59Z</time>
      </trkpt>
      <trkpt lat="46.45657" lon="6.08028">
        <ele>1207.2</ele>
        <time>2024-02-04T14:30:06Z</time>
      </trkpt>
      <trkpt lat="46.45655" lon="6.08042">
        <ele>1207.8</ele>
        <time>2024-02-04T14:30:14Z</time>
      </trkpt>
      <trkpt lat="46.45652" lon="6.08055">
        <ele>1208.2</ele>
        <time>2024-02-04T14:30:23Z</time>
      </trkpt>
      <trkpt lat="46.45657" lon="6.08066">
        <ele>1207.9</ele>
        <time>2024-02-04T14:30:33Z</time>
      </trkpt>
      <trkpt lat="46.45665" lon="6.08073">
        <ele>1207.4</ele>
        <time>2024-02-04T14:30:40Z</time>
      </trkpt>
      <trkpt lat="46.45674" lon="6.08079">
        <ele>1207.9</ele>
        <time>2024-02-04T14:30:49Z</time>
      </trkpt>
      <trkpt lat="46.45683" lon="6.08081">
        <ele>1208.3</ele>
        <time>2024-02-04T14:30:58Z</time>
      </trkpt>
      <trkpt lat="46.45692" lon="6.08076">
        <ele>1208.2</ele>
        <time>2024-02-04T14:31:10Z</time>
      </trkpt>
      <trkpt lat="46.45698" lon="6.08065">
        <ele>1207.8</ele>
        <time>2024-02-04T14:31:21Z</time>
      </trkpt>
      <trkpt lat="46.45705" lon="6.08073">
        <ele>1210.6</ele>
        <time>2024-02-04T14:31:28Z</time>
      </trkpt>
      <trkpt lat="46.45708" lon="6.08086">
        <ele>1212.5</ele>
        <time>2024-02-04T14:31:36Z</time>
      </trkpt>
      <trkpt lat="46.4571" lon="6.08072">
        <ele>1211.7</ele>
        <time>2024-02-04T14:31:45Z</time>
      </trkpt>
      <trkpt lat="46.45712" lon="6.08058">
        <ele>1210.8</ele>
        <time>2024-02-04T14:31:54Z</time>
      </trkpt>
      <trkpt lat="46.45714" lon="6.08045">
        <ele>1209.7</ele>
        <time>2024-02-04T14:32:02Z</time>
      </trkpt>
      <trkpt lat="46.45717" lon="6.08032">
        <ele>1209.2</ele>
        <time>2024-02-04T14:32:10Z</time>
      </trkpt>
      <trkpt lat="46.45722" lon="6.08019">
        <ele>1209</ele>
        <time>2024-02-04T14:32:17Z</time>
      </trkpt>
      <trkpt lat="46.45724" lon="6.08005">
        <ele>1208.1</ele>
        <time>2024-02-04T14:32:24Z</time>
      </trkpt>
      <trkpt lat="46.45725" lon="6.07992">
        <ele>1207.6</ele>
        <time>2024-02-04T14:32:31Z</time>
      </trkpt>
      <trkpt lat="46.45727" lon="6.07979">
        <ele>1207.3</ele>
        <time>2024-02-04T14:32:38Z</time>
      </trkpt>
      <trkpt lat="46.45729" lon="6.07964">
        <ele>1207.6</ele>
        <time>2024-02-04T14:32:47Z</time>
      </trkpt>
      <trkpt lat="46.45734" lon="6.07952">
        <ele>1208.5</ele>
        <time>2024-02-04T14:32:56Z</time>
      </trkpt>
      <trkpt lat="46.4574" lon="6.07941">
        <ele>1207.9</ele>
        <time>2024-02-04T14:33:06Z</time>
      </trkpt>
      <trkpt lat="46.45747" lon="6.07934">
        <ele>1207.6</ele>
        <time>2024-02-04T14:33:17Z</time>
      </trkpt>
      <trkpt lat="46.45754" lon="6.07924">
        <ele>1207.7</ele>
        <time>2024-02-04T14:33:26Z</time>
      </trkpt>
      <trkpt lat="46.45761" lon="6.07915">
        <ele>1207.3</ele>
        <time>2024-02-04T14:33:36Z</time>
      </trkpt>
      <trkpt lat="46.45769" lon="6.07905">
        <ele>1206.5</ele>
        <time>2024-02-04T14:33:44Z</time>
      </trkpt>
      <trkpt lat="46.45774" lon="6.07892">
        <ele>1204.5</ele>
        <time>2024-02-04T14:33:50Z</time>
      </trkpt>
      <trkpt lat="46.45778" lon="6.07881">
        <ele>1203.7</ele>
        <time>2024-02-04T14:33:56Z</time>
      </trkpt>
      <trkpt lat="46.45782" lon="6.07868">
        <ele>1203.3</ele>
        <time>2024-02-04T14:34:02Z</time>
      </trkpt>
      <trkpt lat="46.45786" lon="6.07855">
        <ele>1203</ele>
        <time>2024-02-04T14:34:09Z</time>
      </trkpt>
      <trkpt lat="46.45792" lon="6.07843">
        <ele>1202.8</ele>
        <time>2024-02-04T14:34:16Z</time>
      </trkpt>
      <trkpt lat="46.45798" lon="6.07832">
        <ele>1202</ele>
        <time>2024-02-04T14:34:23Z</time>
      </trkpt>
      <trkpt lat="46.45803" lon="6.07821">
        <ele>1201.5</ele>
        <time>2024-02-04T14:34:30Z</time>
      </trkpt>
      <trkpt lat="46.45809" lon="6.0781">
        <ele>1200.4</ele>
        <time>2024-02-04T14:34:37Z</time>
      </trkpt>
      <trkpt lat="46.45815" lon="6.07798">
        <ele>1199.3</ele>
        <time>2024-02-04T14:34:44Z</time>
      </trkpt>
      <trkpt lat="46.4582" lon="6.07785">
        <ele>1198.3</ele>
        <time>2024-02-04T14:34:52Z</time>
      </trkpt>
      <trkpt lat="46.45825" lon="6.07772">
        <ele>1197.4</ele>
        <time>2024-02-04T14:35:00Z</time>
      </trkpt>
      <trkpt lat="46.45832" lon="6.07762">
        <ele>1196.7</ele>
        <time>2024-02-04T14:35:08Z</time>
      </trkpt>
      <trkpt lat="46.45841" lon="6.07754">
        <ele>1195.6</ele>
        <time>2024-02-04T14:35:18Z</time>
      </trkpt>
      <trkpt lat="46.45848" lon="6.07745">
        <ele>1194.4</ele>
        <time>2024-02-04T14:35:25Z</time>
      </trkpt>
      <trkpt lat="46.45856" lon="6.07736">
        <ele>1193.7</ele>
        <time>2024-02-04T14:35:32Z</time>
      </trkpt>
      <trkpt lat="46.45863" lon="6.07728">
        <ele>1193.3</ele>
        <time>2024-02-04T14:35:39Z</time>
      </trkpt>
      <trkpt lat="46.4587" lon="6.07717">
        <ele>1192.7</ele>
        <time>2024-02-04T14:35:46Z</time>
      </trkpt>
      <trkpt lat="46.45878" lon="6.07709">
        <ele>1191.9</ele>
        <time>2024-02-04T14:35:53Z</time>
      </trkpt>
      <trkpt lat="46.45887" lon="6.07701">
        <ele>1191.7</ele>
        <time>2024-02-04T14:36:00Z</time>
      </trkpt>
      <trkpt lat="46.45894" lon="6.07691">
        <ele>1191.6</ele>
        <time>2024-02-04T14:36:07Z</time>
      </trkpt>
      <trkpt lat="46.45898" lon="6.07679">
        <ele>1191.5</ele>
        <time>2024-02-04T14:36:13Z</time>
      </trkpt>
      <trkpt lat="46.45905" lon="6.07671">
        <ele>1191.3</ele>
        <time>2024-02-04T14:36:20Z</time>
      </trkpt>
      <trkpt lat="46.45914" lon="6.07663">
        <ele>1191</ele>
        <time>2024-02-04T14:36:27Z</time>
      </trkpt>
      <trkpt lat="46.45921" lon="6.07655">
        <ele>1190.3</ele>
        <time>2024-02-04T14:36:34Z</time>
      </trkpt>
      <trkpt lat="46.45929" lon="6.07645">
        <ele>1189.7</ele>
        <time>2024-02-04T14:36:41Z</time>
      </trkpt>
      <trkpt lat="46.45935" lon="6.07635">
        <ele>1189.3</ele>
        <time>2024-02-04T14:36:48Z</time>
      </trkpt>
      <trkpt lat="46.45944" lon="6.07627">
        <ele>1189</ele>
        <time>2024-02-04T14:36:55Z</time>
      </trkpt>
      <trkpt lat="46.45952" lon="6.07619">
        <ele>1188.7</ele>
        <time>2024-02-04T14:37:01Z</time>
      </trkpt>
      <trkpt lat="46.45958" lon="6.0761">
        <ele>1188.5</ele>
        <time>2024-02-04T14:37:08Z</time>
      </trkpt>
      <trkpt lat="46.45966" lon="6.07602">
        <ele>1187.8</ele>
        <time>2024-02-04T14:37:16Z</time>
      </trkpt>
      <trkpt lat="46.45974" lon="6.07594">
        <ele>1187.5</ele>
        <time>2024-02-04T14:37:24Z</time>
      </trkpt>
      <trkpt lat="46.45982" lon="6.07585">
        <ele>1187.4</ele>
        <time>2024-02-04T14:37:31Z</time>
      </trkpt>
      <trkpt lat="46.45989" lon="6.07575">
        <ele>1187.1</ele>
        <time>2024-02-04T14:37:38Z</time>
      </trkpt>
      <trkpt lat="46.45997" lon="6.07567">
        <ele>1186.8</ele>
        <time>2024-02-04T14:37:46Z</time>
      </trkpt>
      <trkpt lat="46.46005" lon="6.0756">
        <ele>1186.4</ele>
        <time>2024-02-04T14:37:53Z</time>
      </trkpt>
      <trkpt lat="46.46014" lon="6.07552">
        <ele>1185.9</ele>
        <time>2024-02-04T14:38:00Z</time>
      </trkpt>
      <trkpt lat="46.46022" lon="6.07543">
        <ele>1185.6</ele>
        <time>2024-02-04T14:38:07Z</time>
      </trkpt>
      <trkpt lat="46.46028" lon="6.07532">
        <ele>1185.2</ele>
        <time>2024-02-04T14:38:15Z</time>
      </trkpt>
      <trkpt lat="46.46037" lon="6.07527">
        <ele>1184.3</ele>
        <time>2024-02-04T14:38:23Z</time>
      </trkpt>
      <trkpt lat="46.46045" lon="6.0752">
        <ele>1183.5</ele>
        <time>2024-02-04T14:38:30Z</time>
      </trkpt>
      <trkpt lat="46.46052" lon="6.07513">
        <ele>1182.3</ele>
        <time>2024-02-04T14:38:37Z</time>
      </trkpt>
      <trkpt lat="46.46062" lon="6.07507">
        <ele>1180.8</ele>
        <time>2024-02-04T14:38:44Z</time>
      </trkpt>
      <trkpt lat="46.46072" lon="6.07506">
        <ele>1179.5</ele>
        <time>2024-02-04T14:38:51Z</time>
      </trkpt>
      <trkpt lat="46.46082" lon="6.07505">
        <ele>1178.3</ele>
        <time>2024-02-04T14:38:59Z</time>
      </trkpt>
      <trkpt lat="46.46092" lon="6.075">
        <ele>1177.1</ele>
        <time>2024-02-04T14:39:08Z</time>
      </trkpt>
      <trkpt lat="46.461" lon="6.07496">
        <ele>1176.1</ele>
        <time>2024-02-04T14:39:15Z</time>
      </trkpt>
      <trkpt lat="46.46111" lon="6.07494">
        <ele>1175.1</ele>
        <time>2024-02-04T14:39:22Z</time>
      </trkpt>
      <trkpt lat="46.46119" lon="6.07499">
        <ele>1174.4</ele>
        <time>2024-02-04T14:39:28Z</time>
      </trkpt>
      <trkpt lat="46.46127" lon="6.07506">
        <ele>1174</ele>
        <time>2024-02-04T14:39:35Z</time>
      </trkpt>
      <trkpt lat="46.46135" lon="6.07512">
        <ele>1173.4</ele>
        <time>2024-02-04T14:39:42Z</time>
      </trkpt>
      <trkpt lat="46.46142" lon="6.07522">
        <ele>1172.6</ele>
        <time>2024-02-04T14:39:51Z</time>
      </trkpt>
      <trkpt lat="46.46151" lon="6.07528">
        <ele>1171.7</ele>
        <time>2024-02-04T14:39:59Z</time>
      </trkpt>
      <trkpt lat="46.4616" lon="6.07537">
        <ele>1171.3</ele>
        <time>2024-02-04T14:40:06Z</time>
      </trkpt>
      <trkpt lat="46.46168" lon="6.07545">
        <ele>1171.2</ele>
        <time>2024-02-04T14:40:14Z</time>
      </trkpt>
      <trkpt lat="46.46177" lon="6.07551">
        <ele>1171</ele>
        <time>2024-02-04T14:40:21Z</time>
      </trkpt>
      <trkpt lat="46.46186" lon="6.07556">
        <ele>1170.6</ele>
        <time>2024-02-04T14:40:28Z</time>
      </trkpt>
      <trkpt lat="46.46195" lon="6.0756">
        <ele>1170.1</ele>
        <time>2024-02-04T14:40:35Z</time>
      </trkpt>
      <trkpt lat="46.46205" lon="6.07561">
        <ele>1169.7</ele>
        <time>2024-02-04T14:40:42Z</time>
      </trkpt>
      <trkpt lat="46.46214" lon="6.0756">
        <ele>1169.3</ele>
        <time>2024-02-04T14:40:50Z</time>
      </trkpt>
      <trkpt lat="46.46223" lon="6.07555">
        <ele>1169</ele>
        <time>2024-02-04T14:40:58Z</time>
      </trkpt>
      <trkpt lat="46.46232" lon="6.07549">
        <ele>1168.6</ele>
        <time>2024-02-04T14:41:06Z</time>
      </trkpt>
      <trkpt lat="46.4624" lon="6.07541">
        <ele>1168.4</ele>
        <time>2024-02-04T14:41:14Z</time>
      </trkpt>
      <trkpt lat="46.46245" lon="6.07529">
        <ele>1168.2</ele>
        <time>2024-02-04T14:41:21Z</time>
      </trkpt>
      <trkpt lat="46.46253" lon="6.07519">
        <ele>1167.5</ele>
        <time>2024-02-04T14:41:29Z</time>
      </trkpt>
      <trkpt lat="46.46261" lon="6.07511">
        <ele>1167.4</ele>
        <time>2024-02-04T14:41:36Z</time>
      </trkpt>
      <trkpt lat="46.46266" lon="6.07499">
        <ele>1167.1</ele>
        <time>2024-02-04T14:41:43Z</time>
      </trkpt>
      <trkpt lat="46.46272" lon="6.07488">
        <ele>1166.7</ele>
        <time>2024-02-04T14:41:50Z</time>
      </trkpt>
      <trkpt lat="46.46278" lon="6.07476">
        <ele>1166.3</ele>
        <time>2024-02-04T14:41:58Z</time>
      </trkpt>
      <trkpt lat="46.46283" lon="6.07463">
        <ele>1165.7</ele>
        <time>2024-02-04T14:42:06Z</time>
      </trkpt>
      <trkpt lat="46.46288" lon="6.07453">
        <ele>1165.1</ele>
        <time>2024-02-04T14:42:12Z</time>
      </trkpt>
      <trkpt lat="46.46296" lon="6.07442">
        <ele>1164.5</ele>
        <time>2024-02-04T14:42:19Z</time>
      </trkpt>
      <trkpt lat="46.46304" lon="6.07436">
        <ele>1164.6</ele>
        <time>2024-02-04T14:42:25Z</time>
      </trkpt>
      <trkpt lat="46.46313" lon="6.07433">
        <ele>1164.4</ele>
        <time>2024-02-04T14:42:31Z</time>
      </trkpt>
      <trkpt lat="46.46321" lon="6.07425">
        <ele>1163.5</ele>
        <time>2024-02-04T14:42:39Z</time>
      </trkpt>
      <trkpt lat="46.46328" lon="6.07415">
        <ele>1162.3</ele>
        <time>2024-02-04T14:42:46Z</time>
      </trkpt>
      <trkpt lat="46.46337" lon="6.07415">
        <ele>1161.8</ele>
        <time>2024-02-04T14:42:53Z</time>
      </trkpt>
      <trkpt lat="46.46347" lon="6.07414">
        <ele>1161.4</ele>
        <time>2024-02-04T14:43:01Z</time>
      </trkpt>
      <trkpt lat="46.46356" lon="6.07407">
        <ele>1160.8</ele>
        <time>2024-02-04T14:43:08Z</time>
      </trkpt>
      <trkpt lat="46.46366" lon="6.07402">
        <ele>1160.4</ele>
        <time>2024-02-04T14:43:16Z</time>
      </trkpt>
      <trkpt lat="46.46375" lon="6.07397">
        <ele>1159.9</ele>
        <time>2024-02-04T14:43:23Z</time>
      </trkpt>
      <trkpt lat="46.46384" lon="6.07395">
        <ele>1159.6</ele>
        <time>2024-02-04T14:43:30Z</time>
      </trkpt>
      <trkpt lat="46.46394" lon="6.07395">
        <ele>1159.6</ele>
        <time>2024-02-04T14:43:38Z</time>
      </trkpt>
      <trkpt lat="46.464" lon="6.07385">
        <ele>1159.3</ele>
        <time>2024-02-04T14:43:46Z</time>
      </trkpt>
      <trkpt lat="46.46406" lon="6.07374">
        <ele>1159</ele>
        <time>2024-02-04T14:43:53Z</time>
      </trkpt>
      <trkpt lat="46.46414" lon="6.07364">
        <ele>1158.3</ele>
        <time>2024-02-04T14:44:00Z</time>
      </trkpt>
      <trkpt lat="46.46423" lon="6.07359">
        <ele>1157.5</ele>
        <time>2024-02-04T14:44:08Z</time>
      </trkpt>
      <trkpt lat="46.46429" lon="6.07348">
        <ele>1156.9</ele>
        <time>2024-02-04T14:44:17Z</time>
      </trkpt>
      <trkpt lat="46.46436" lon="6.07339">
        <ele>1156.4</ele>
        <time>2024-02-04T14:44:25Z</time>
      </trkpt>
      <trkpt lat="46.46444" lon="6.07329">
        <ele>1155.7</ele>
        <time>2024-02-04T14:44:32Z</time>
      </trkpt>
      <trkpt lat="46.46451" lon="6.07321">
        <ele>1155</ele>
        <time>2024-02-04T14:44:39Z</time>
      </trkpt>
      <trkpt lat="46.4646" lon="6.07315">
        <ele>1154.5</ele>
        <time>2024-02-04T14:44:47Z</time>
      </trkpt>
      <trkpt lat="46.46469" lon="6.07312">
        <ele>1154.3</ele>
        <time>2024-02-04T14:44:54Z</time>
      </trkpt>
      <trkpt lat="46.46477" lon="6.07304">
        <ele>1153.8</ele>
        <time>2024-02-04T14:45:08Z</time>
      </trkpt>
      <trkpt lat="46.46486" lon="6.07295">
        <ele>1153.1</ele>
        <time>2024-02-04T14:45:14Z</time>
      </trkpt>
      <trkpt lat="46.46496" lon="6.07293">
        <ele>1152.7</ele>
        <time>2024-02-04T14:45:21Z</time>
      </trkpt>
      <trkpt lat="46.46505" lon="6.07296">
        <ele>1152.5</ele>
        <time>2024-02-04T14:45:59Z</time>
      </trkpt>
      <trkpt lat="46.46514" lon="6.07294">
        <ele>1152.1</ele>
        <time>2024-02-04T14:46:09Z</time>
      </trkpt>
      <trkpt lat="46.46523" lon="6.0729">
        <ele>1151.6</ele>
        <time>2024-02-04T14:46:16Z</time>
      </trkpt>
      <trkpt lat="46.46533" lon="6.07286">
        <ele>1151.2</ele>
        <time>2024-02-04T14:46:24Z</time>
      </trkpt>
      <trkpt lat="46.46543" lon="6.07284">
        <ele>1151.1</ele>
        <time>2024-02-04T14:46:32Z</time>
      </trkpt>
      <trkpt lat="46.46553" lon="6.07284">
        <ele>1151</ele>
        <time>2024-02-04T14:46:41Z</time>
      </trkpt>
      <trkpt lat="46.46544" lon="6.07281">
        <ele>1151.1</ele>
        <time>2024-02-04T14:47:06Z</time>
      </trkpt>
      <trkpt lat="46.46534" lon="6.07283">
        <ele>1151.1</ele>
        <time>2024-02-04T14:47:16Z</time>
      </trkpt>
      <trkpt lat="46.46525" lon="6.07283">
        <ele>1151.3</ele>
        <time>2024-02-04T14:47:25Z</time>
      </trkpt>
      <trkpt lat="46.46514" lon="6.07285">
        <ele>1151.7</ele>
        <time>2024-02-04T14:47:33Z</time>
      </trkpt>
      <trkpt lat="46.46505" lon="6.07284">
        <ele>1152.1</ele>
        <time>2024-02-04T14:47:41Z</time>
      </trkpt>
      <trkpt lat="46.46496" lon="6.07284">
        <ele>1152.4</ele>
        <time>2024-02-04T14:47:48Z</time>
      </trkpt>
      <trkpt lat="46.46487" lon="6.07283">
        <ele>1152.7</ele>
        <time>2024-02-04T14:47:56Z</time>
      </trkpt>
      <trkpt lat="46.46495" lon="6.07277">
        <ele>1152.2</ele>
        <time>2024-02-04T14:48:08Z</time>
      </trkpt>
    </trkseg>
  </trk>
</gpx>